<?xml version="1.0" encoding="UTF-8"?>
<gpx xmlns:xsi="http://www.w3.org/2001/XMLSchema-instance" xmlns="http://www.topografix.com/GPX/1/1" xsi:schemaLocation="http://www.topografix.com/GPX/1/1 http://www.topografix.com/GPX/1/1/gpx.xsd" version="1.1">
  <metadata>
    <name>HITS Triathlon Series - Sarasota, FL - Bike [Olympic - 2 loops]</name>
    <copyright author="OpenStreetMap contributors">
      <year>2020</year>
      <license>https://www.openstreetmap.org/copyright</license>
    </copyright>
    <link href="https://www.strava.com/routes/22838630"/>
  </metadata>
  <trk>
    <name>HITS Triathlon Series - Sarasota, FL - Bike [Olympic - 2 loops]</name>
    <link href="https://www.strava.com/routes/22838630"/>
    <type>Radfahrt</type>
    <trkseg>
      <trkpt lat="27.376148" lon="-82.452342">
        <ele>6.940001</ele>
        <time>2024-01-07T08:30:00.000Z</time>
      </trkpt>
      <trkpt lat="27.376179" lon="-82.45233">
        <ele>6.939992</ele>
        <time>2024-01-07T08:30:00.000Z</time>
      </trkpt>
      <trkpt lat="27.376248" lon="-82.452242">
        <ele>6.960008</ele>
        <time>2024-01-07T08:30:01.000Z</time>
      </trkpt>
      <trkpt lat="27.376246" lon="-82.451568">
        <ele>9.009991</ele>
        <time>2024-01-07T08:30:08.000Z</time>
      </trkpt>
      <trkpt lat="27.376186" lon="-82.451426">
        <ele>9.410007</ele>
        <time>2024-01-07T08:30:10.000Z</time>
      </trkpt>
      <trkpt lat="27.376596" lon="-82.450969">
        <ele>9.859995</ele>
        <time>2024-01-07T08:30:16.000Z</time>
      </trkpt>
      <trkpt lat="27.376473" lon="-82.450826">
        <ele>10.150003</ele>
        <time>2024-01-07T08:30:18.000Z</time>
      </trkpt>
      <trkpt lat="27.376531" lon="-82.450755">
        <ele>9.959991</ele>
        <time>2024-01-07T08:30:19.000Z</time>
      </trkpt>
      <trkpt lat="27.3761790005" lon="-82.4503499985">
        <ele>10.360002</ele>
        <time>2024-01-07T08:30:25.000Z</time>
      </trkpt>
      <trkpt lat="27.375798" lon="-82.449936">
        <ele>10.640003</ele>
        <time>2024-01-07T08:30:31.000Z</time>
      </trkpt>
      <trkpt lat="27.375433" lon="-82.449453">
        <ele>9.940008</ele>
        <time>2024-01-07T08:30:37.000Z</time>
      </trkpt>
      <trkpt lat="27.375071" lon="-82.448702">
        <ele>7.420005</ele>
        <time>2024-01-07T08:30:45.000Z</time>
      </trkpt>
      <trkpt lat="27.374946" lon="-82.448485">
        <ele>7.019999</ele>
        <time>2024-01-07T08:30:48.000Z</time>
      </trkpt>
      <trkpt lat="27.374703" lon="-82.448206">
        <ele>6.490003</ele>
        <time>2024-01-07T08:30:52.000Z</time>
      </trkpt>
      <trkpt lat="27.374253" lon="-82.447838">
        <ele>6.620005</ele>
        <time>2024-01-07T08:30:58.000Z</time>
      </trkpt>
      <trkpt lat="27.373952" lon="-82.447673">
        <ele>7.189997</ele>
        <time>2024-01-07T08:31:02.000Z</time>
      </trkpt>
      <trkpt lat="27.373623" lon="-82.447528">
        <ele>7.689991</ele>
        <time>2024-01-07T08:31:06.000Z</time>
      </trkpt>
      <trkpt lat="27.373217" lon="-82.447445">
        <ele>7.870007</ele>
        <time>2024-01-07T08:31:11.000Z</time>
      </trkpt>
      <trkpt lat="27.37258" lon="-82.4474249999">
        <ele>8.42</ele>
        <time>2024-01-07T08:31:18.000Z</time>
      </trkpt>
      <trkpt lat="27.371933" lon="-82.447429">
        <ele>8.429992</ele>
        <time>2024-01-07T08:31:25.000Z</time>
      </trkpt>
      <trkpt lat="27.371928" lon="-82.447413">
        <ele>8.429991</ele>
        <time>2024-01-07T08:31:25.000Z</time>
      </trkpt>
      <trkpt lat="27.3710523333" lon="-82.4474213333">
        <ele>8.259995</ele>
        <time>2024-01-07T08:31:35.000Z</time>
      </trkpt>
      <trkpt lat="27.3701926667" lon="-82.4474106666">
        <ele>7.760002</ele>
        <time>2024-01-07T08:31:45.000Z</time>
      </trkpt>
      <trkpt lat="27.369319" lon="-82.4474109999">
        <ele>7.250009</ele>
        <time>2024-01-07T08:31:55.000Z</time>
      </trkpt>
      <trkpt lat="27.3684523333" lon="-82.4474063332">
        <ele>7.420001</ele>
        <time>2024-01-07T08:32:05.000Z</time>
      </trkpt>
      <trkpt lat="27.3675786666" lon="-82.4474116666">
        <ele>7.760007</ele>
        <time>2024-01-07T08:32:15.000Z</time>
      </trkpt>
      <trkpt lat="27.366712" lon="-82.447413">
        <ele>7.979991</ele>
        <time>2024-01-07T08:32:25.000Z</time>
      </trkpt>
      <trkpt lat="27.3658844286" lon="-82.4474188573">
        <ele>7.620004</ele>
        <time>2024-01-07T08:32:34.000Z</time>
      </trkpt>
      <trkpt lat="27.3650558571" lon="-82.4474157145">
        <ele>7.379997</ele>
        <time>2024-01-07T08:32:43.000Z</time>
      </trkpt>
      <trkpt lat="27.3642412857" lon="-82.4474095717">
        <ele>7.100005</ele>
        <time>2024-01-07T08:32:52.000Z</time>
      </trkpt>
      <trkpt lat="27.3633977143" lon="-82.4474264288">
        <ele>7.379992</ele>
        <time>2024-01-07T08:33:01.000Z</time>
      </trkpt>
      <trkpt lat="27.3625801428" lon="-82.4474222859">
        <ele>7.679999</ele>
        <time>2024-01-07T08:33:10.000Z</time>
      </trkpt>
      <trkpt lat="27.3617505714" lon="-82.447434143">
        <ele>7.980001</ele>
        <time>2024-01-07T08:33:19.000Z</time>
      </trkpt>
      <trkpt lat="27.360925" lon="-82.447436">
        <ele>8.330003</ele>
        <time>2024-01-07T08:33:28.000Z</time>
      </trkpt>
      <trkpt lat="27.3602123333" lon="-82.4474970008">
        <ele>8.410006</ele>
        <time>2024-01-07T08:33:36.000Z</time>
      </trkpt>
      <trkpt lat="27.3594916665" lon="-82.4475530008">
        <ele>8.300002</ele>
        <time>2024-01-07T08:33:44.000Z</time>
      </trkpt>
      <trkpt lat="27.358778" lon="-82.447603">
        <ele>8.470001</ele>
        <time>2024-01-07T08:33:52.000Z</time>
      </trkpt>
      <trkpt lat="27.358161" lon="-82.447611">
        <ele>8.820004</ele>
        <time>2024-01-07T08:33:59.000Z</time>
      </trkpt>
      <trkpt lat="27.3574590001" lon="-82.447629">
        <ele>8.860003</ele>
        <time>2024-01-07T08:34:07.000Z</time>
      </trkpt>
      <trkpt lat="27.35675" lon="-82.447625">
        <ele>8.660003</ele>
        <time>2024-01-07T08:34:15.000Z</time>
      </trkpt>
      <trkpt lat="27.356162" lon="-82.447571">
        <ele>8.810003</ele>
        <time>2024-01-07T08:34:22.000Z</time>
      </trkpt>
      <trkpt lat="27.356008" lon="-82.447559">
        <ele>8.910007</ele>
        <time>2024-01-07T08:34:24.000Z</time>
      </trkpt>
      <trkpt lat="27.3555390003" lon="-82.4474819997">
        <ele>8.820002</ele>
        <time>2024-01-07T08:34:29.000Z</time>
      </trkpt>
      <trkpt lat="27.355093" lon="-82.447398">
        <ele>8.680003</ele>
        <time>2024-01-07T08:34:34.000Z</time>
      </trkpt>
      <trkpt lat="27.354496" lon="-82.447348">
        <ele>8.660009</ele>
        <time>2024-01-07T08:34:41.000Z</time>
      </trkpt>
      <trkpt lat="27.353675" lon="-82.447317">
        <ele>8.969999</ele>
        <time>2024-01-07T08:34:50.000Z</time>
      </trkpt>
      <trkpt lat="27.352782" lon="-82.447313">
        <ele>8.849993</ele>
        <time>2024-01-07T08:35:00.000Z</time>
      </trkpt>
      <trkpt lat="27.351901" lon="-82.447314">
        <ele>8.500006</ele>
        <time>2024-01-07T08:35:10.000Z</time>
      </trkpt>
      <trkpt lat="27.351008" lon="-82.447327">
        <ele>8.370005</ele>
        <time>2024-01-07T08:35:20.000Z</time>
      </trkpt>
      <trkpt lat="27.350136" lon="-82.447323">
        <ele>8.620004</ele>
        <time>2024-01-07T08:35:30.000Z</time>
      </trkpt>
      <trkpt lat="27.349237" lon="-82.447319">
        <ele>8.510001</ele>
        <time>2024-01-07T08:35:40.000Z</time>
      </trkpt>
      <trkpt lat="27.348352" lon="-82.447319">
        <ele>8.510004</ele>
        <time>2024-01-07T08:35:50.000Z</time>
      </trkpt>
      <trkpt lat="27.347457" lon="-82.4473360005">
        <ele>8.219991</ele>
        <time>2024-01-07T08:36:00.000Z</time>
      </trkpt>
      <trkpt lat="27.346567" lon="-82.4473680006">
        <ele>8.11</ele>
        <time>2024-01-07T08:36:10.000Z</time>
      </trkpt>
      <trkpt lat="27.3456660001" lon="-82.4473890005">
        <ele>8.160002</ele>
        <time>2024-01-07T08:36:20.000Z</time>
      </trkpt>
      <trkpt lat="27.344772" lon="-82.447408">
        <ele>8.190007</ele>
        <time>2024-01-07T08:36:30.000Z</time>
      </trkpt>
      <trkpt lat="27.344504" lon="-82.447441">
        <ele>8.689991</ele>
        <time>2024-01-07T08:36:33.000Z</time>
      </trkpt>
      <trkpt lat="27.344234" lon="-82.447546">
        <ele>8.870005</ele>
        <time>2024-01-07T08:36:36.000Z</time>
      </trkpt>
      <trkpt lat="27.344309" lon="-82.447817">
        <ele>8.789993</ele>
        <time>2024-01-07T08:36:39.000Z</time>
      </trkpt>
      <trkpt lat="27.344315" lon="-82.447827">
        <ele>8.790008</ele>
        <time>2024-01-07T08:36:39.000Z</time>
      </trkpt>
      <trkpt lat="27.344503" lon="-82.448519">
        <ele>8.869994</ele>
        <time>2024-01-07T08:36:46.000Z</time>
      </trkpt>
      <trkpt lat="27.34454" lon="-82.448697">
        <ele>8.869991</ele>
        <time>2024-01-07T08:36:48.000Z</time>
      </trkpt>
      <trkpt lat="27.344554" lon="-82.44905">
        <ele>9.219999</ele>
        <time>2024-01-07T08:36:51.000Z</time>
      </trkpt>
      <trkpt lat="27.344559011" lon="-82.4499220002">
        <ele>9.350008</ele>
        <time>2024-01-07T08:37:00.000Z</time>
      </trkpt>
      <trkpt lat="27.3445420165" lon="-82.4508110003">
        <ele>9.000007</ele>
        <time>2024-01-07T08:37:09.000Z</time>
      </trkpt>
      <trkpt lat="27.3445430165" lon="-82.4516830003">
        <ele>9.149997</ele>
        <time>2024-01-07T08:37:18.000Z</time>
      </trkpt>
      <trkpt lat="27.344530011" lon="-82.4525670002">
        <ele>9.000009</ele>
        <time>2024-01-07T08:37:27.000Z</time>
      </trkpt>
      <trkpt lat="27.344537" lon="-82.453441">
        <ele>9.150009</ele>
        <time>2024-01-07T08:37:36.000Z</time>
      </trkpt>
      <trkpt lat="27.344905" lon="-82.453436">
        <ele>8.840007</ele>
        <time>2024-01-07T08:37:40.000Z</time>
      </trkpt>
      <trkpt lat="27.344919" lon="-82.453444">
        <ele>8.840007</ele>
        <time>2024-01-07T08:37:40.000Z</time>
      </trkpt>
      <trkpt lat="27.345093" lon="-82.453439">
        <ele>8.750002</ele>
        <time>2024-01-07T08:37:42.000Z</time>
      </trkpt>
      <trkpt lat="27.345154" lon="-82.453486">
        <ele>8.749999</ele>
        <time>2024-01-07T08:37:43.000Z</time>
      </trkpt>
      <trkpt lat="27.3458573332" lon="-82.4534813333">
        <ele>8.270006</ele>
        <time>2024-01-07T08:37:51.000Z</time>
      </trkpt>
      <trkpt lat="27.3465626665" lon="-82.4534806666">
        <ele>7.850001</ele>
        <time>2024-01-07T08:37:59.000Z</time>
      </trkpt>
      <trkpt lat="27.347265" lon="-82.453483">
        <ele>7.850001</ele>
        <time>2024-01-07T08:38:07.000Z</time>
      </trkpt>
      <trkpt lat="27.347413" lon="-82.453482">
        <ele>7.970005</ele>
        <time>2024-01-07T08:38:09.000Z</time>
      </trkpt>
      <trkpt lat="27.347713" lon="-82.453399">
        <ele>8.060008</ele>
        <time>2024-01-07T08:38:12.000Z</time>
      </trkpt>
      <trkpt lat="27.347968" lon="-82.453274">
        <ele>8.079994</ele>
        <time>2024-01-07T08:38:15.000Z</time>
      </trkpt>
      <trkpt lat="27.348295" lon="-82.453035">
        <ele>8.200002</ele>
        <time>2024-01-07T08:38:19.000Z</time>
      </trkpt>
      <trkpt lat="27.348688" lon="-82.452671">
        <ele>8.360004</ele>
        <time>2024-01-07T08:38:25.000Z</time>
      </trkpt>
      <trkpt lat="27.348888" lon="-82.452583">
        <ele>8.380002</ele>
        <time>2024-01-07T08:38:27.000Z</time>
      </trkpt>
      <trkpt lat="27.349331" lon="-82.452463">
        <ele>8.319995</ele>
        <time>2024-01-07T08:38:32.000Z</time>
      </trkpt>
      <trkpt lat="27.349489" lon="-82.452445">
        <ele>8.320008</ele>
        <time>2024-01-07T08:38:34.000Z</time>
      </trkpt>
      <trkpt lat="27.349929" lon="-82.452458">
        <ele>8.589992</ele>
        <time>2024-01-07T08:38:39.000Z</time>
      </trkpt>
      <trkpt lat="27.350165" lon="-82.452518">
        <ele>8.630007</ele>
        <time>2024-01-07T08:38:42.000Z</time>
      </trkpt>
      <trkpt lat="27.350379" lon="-82.452595">
        <ele>8.62</ele>
        <time>2024-01-07T08:38:44.000Z</time>
      </trkpt>
      <trkpt lat="27.350779" lon="-82.452777">
        <ele>8.430009</ele>
        <time>2024-01-07T08:38:49.000Z</time>
      </trkpt>
      <trkpt lat="27.351129" lon="-82.453031">
        <ele>8.479994</ele>
        <time>2024-01-07T08:38:54.000Z</time>
      </trkpt>
      <trkpt lat="27.351259" lon="-82.453186">
        <ele>8.450001</ele>
        <time>2024-01-07T08:38:56.000Z</time>
      </trkpt>
      <trkpt lat="27.351498" lon="-82.453527">
        <ele>8.480006</ele>
        <time>2024-01-07T08:39:00.000Z</time>
      </trkpt>
      <trkpt lat="27.35166" lon="-82.453795">
        <ele>8.579998</ele>
        <time>2024-01-07T08:39:03.000Z</time>
      </trkpt>
      <trkpt lat="27.351762" lon="-82.454021">
        <ele>8.659994</ele>
        <time>2024-01-07T08:39:06.000Z</time>
      </trkpt>
      <trkpt lat="27.351867" lon="-82.454464">
        <ele>8.589992</ele>
        <time>2024-01-07T08:39:11.000Z</time>
      </trkpt>
      <trkpt lat="27.351943" lon="-82.454871">
        <ele>8.600008</ele>
        <time>2024-01-07T08:39:15.000Z</time>
      </trkpt>
      <trkpt lat="27.351986" lon="-82.454914">
        <ele>8.570001</ele>
        <time>2024-01-07T08:39:16.000Z</time>
      </trkpt>
      <trkpt lat="27.352011" lon="-82.455003">
        <ele>8.580003</ele>
        <time>2024-01-07T08:39:17.000Z</time>
      </trkpt>
      <trkpt lat="27.351958" lon="-82.455033">
        <ele>8.639995</ele>
        <time>2024-01-07T08:39:18.000Z</time>
      </trkpt>
      <trkpt lat="27.351981" lon="-82.455558">
        <ele>8.479998</ele>
        <time>2024-01-07T08:39:23.000Z</time>
      </trkpt>
      <trkpt lat="27.351983" lon="-82.455556">
        <ele>8.479999</ele>
        <time>2024-01-07T08:39:23.000Z</time>
      </trkpt>
      <trkpt lat="27.352003" lon="-82.455771">
        <ele>8.479995</ele>
        <time>2024-01-07T08:39:25.000Z</time>
      </trkpt>
      <trkpt lat="27.3520126709" lon="-82.456553">
        <ele>8.390007</ele>
        <time>2024-01-07T08:39:33.000Z</time>
      </trkpt>
      <trkpt lat="27.3520143376" lon="-82.457312">
        <ele>8.450004</ele>
        <time>2024-01-07T08:39:40.000Z</time>
      </trkpt>
      <trkpt lat="27.352024" lon="-82.458085">
        <ele>8.500007</ele>
        <time>2024-01-07T08:39:48.000Z</time>
      </trkpt>
      <trkpt lat="27.3520195063" lon="-82.458853">
        <ele>8.570004</ele>
        <time>2024-01-07T08:39:56.000Z</time>
      </trkpt>
      <trkpt lat="27.3520170084" lon="-82.4596209999">
        <ele>8.459997</ele>
        <time>2024-01-07T08:40:04.000Z</time>
      </trkpt>
      <trkpt lat="27.3520245063" lon="-82.460396">
        <ele>8.290008</ele>
        <time>2024-01-07T08:40:12.000Z</time>
      </trkpt>
      <trkpt lat="27.352021" lon="-82.461176">
        <ele>8.300007</ele>
        <time>2024-01-07T08:40:20.000Z</time>
      </trkpt>
      <trkpt lat="27.352016" lon="-82.462081">
        <ele>8.489991</ele>
        <time>2024-01-07T08:40:29.000Z</time>
      </trkpt>
      <trkpt lat="27.351987" lon="-82.462219">
        <ele>8.489992</ele>
        <time>2024-01-07T08:40:30.000Z</time>
      </trkpt>
      <trkpt lat="27.351954" lon="-82.462706">
        <ele>8.639994</ele>
        <time>2024-01-07T08:40:35.000Z</time>
      </trkpt>
      <trkpt lat="27.3519560035" lon="-82.463681">
        <ele>9.060001</ele>
        <time>2024-01-07T08:40:45.000Z</time>
      </trkpt>
      <trkpt lat="27.351955" lon="-82.464667">
        <ele>9.069995</ele>
        <time>2024-01-07T08:40:55.000Z</time>
      </trkpt>
      <trkpt lat="27.351967175" lon="-82.4656294976">
        <ele>8.859996</ele>
        <time>2024-01-07T08:41:05.000Z</time>
      </trkpt>
      <trkpt lat="27.3519943433" lon="-82.4665999956">
        <ele>8.669994</ele>
        <time>2024-01-07T08:41:15.000Z</time>
      </trkpt>
      <trkpt lat="27.352009505" lon="-82.4675674938">
        <ele>8.740004</ele>
        <time>2024-01-07T08:41:25.000Z</time>
      </trkpt>
      <trkpt lat="27.35202666" lon="-82.4685389924">
        <ele>8.520001</ele>
        <time>2024-01-07T08:41:35.000Z</time>
      </trkpt>
      <trkpt lat="27.3520318083" lon="-82.4695144913">
        <ele>8.36</ele>
        <time>2024-01-07T08:41:45.000Z</time>
      </trkpt>
      <trkpt lat="27.35206795" lon="-82.4704709905">
        <ele>8.510002</ele>
        <time>2024-01-07T08:41:54.000Z</time>
      </trkpt>
      <trkpt lat="27.352076085" lon="-82.47144549">
        <ele>8.269999</ele>
        <time>2024-01-07T08:42:04.000Z</time>
      </trkpt>
      <trkpt lat="27.3521032133" lon="-82.4724019899">
        <ele>7.859999</ele>
        <time>2024-01-07T08:42:13.000Z</time>
      </trkpt>
      <trkpt lat="27.352116335" lon="-82.4733754901">
        <ele>7.590006</ele>
        <time>2024-01-07T08:42:23.000Z</time>
      </trkpt>
      <trkpt lat="27.35212945" lon="-82.4743519905">
        <ele>7.439996</ele>
        <time>2024-01-07T08:42:33.000Z</time>
      </trkpt>
      <trkpt lat="27.3521525583" lon="-82.4753124913">
        <ele>7.209993</ele>
        <time>2024-01-07T08:42:42.000Z</time>
      </trkpt>
      <trkpt lat="27.35216866" lon="-82.4762819924">
        <ele>7.139999</ele>
        <time>2024-01-07T08:42:52.000Z</time>
      </trkpt>
      <trkpt lat="27.352191755" lon="-82.4772464939">
        <ele>7.189994</ele>
        <time>2024-01-07T08:43:02.000Z</time>
      </trkpt>
      <trkpt lat="27.3522118433" lon="-82.4782149956">
        <ele>6.909997</ele>
        <time>2024-01-07T08:43:12.000Z</time>
      </trkpt>
      <trkpt lat="27.352223925" lon="-82.4791914977">
        <ele>7.009998</ele>
        <time>2024-01-07T08:43:22.000Z</time>
      </trkpt>
      <trkpt lat="27.352248" lon="-82.480149">
        <ele>6.899994</ele>
        <time>2024-01-07T08:43:31.000Z</time>
      </trkpt>
      <trkpt lat="27.3522470104" lon="-82.4810129998">
        <ele>7.170002</ele>
        <time>2024-01-07T08:43:40.000Z</time>
      </trkpt>
      <trkpt lat="27.3522490156" lon="-82.4818579997">
        <ele>6.990008</ele>
        <time>2024-01-07T08:43:48.000Z</time>
      </trkpt>
      <trkpt lat="27.3522620156" lon="-82.4827059997">
        <ele>7.149995</ele>
        <time>2024-01-07T08:43:56.000Z</time>
      </trkpt>
      <trkpt lat="27.3522710104" lon="-82.4835749998">
        <ele>7.030005</ele>
        <time>2024-01-07T08:44:05.000Z</time>
      </trkpt>
      <trkpt lat="27.352268" lon="-82.484427">
        <ele>7.39</ele>
        <time>2024-01-07T08:44:13.000Z</time>
      </trkpt>
      <trkpt lat="27.3522780117" lon="-82.485319">
        <ele>7.330006</ele>
        <time>2024-01-07T08:44:22.000Z</time>
      </trkpt>
      <trkpt lat="27.3522610176" lon="-82.486244">
        <ele>7.219994</ele>
        <time>2024-01-07T08:44:31.000Z</time>
      </trkpt>
      <trkpt lat="27.3522760176" lon="-82.4871469999">
        <ele>7.649996</ele>
        <time>2024-01-07T08:44:40.000Z</time>
      </trkpt>
      <trkpt lat="27.3522610117" lon="-82.4880609999">
        <ele>7.940009</ele>
        <time>2024-01-07T08:44:49.000Z</time>
      </trkpt>
      <trkpt lat="27.352279" lon="-82.488965">
        <ele>8.019998</ele>
        <time>2024-01-07T08:44:58.000Z</time>
      </trkpt>
      <trkpt lat="27.352264004" lon="-82.4897183335">
        <ele>7.890004</ele>
        <time>2024-01-07T08:45:05.000Z</time>
      </trkpt>
      <trkpt lat="27.352258004" lon="-82.4904616669">
        <ele>8.110007</ele>
        <time>2024-01-07T08:45:12.000Z</time>
      </trkpt>
      <trkpt lat="27.352248" lon="-82.491222">
        <ele>8.440009</ele>
        <time>2024-01-07T08:45:20.000Z</time>
      </trkpt>
      <trkpt lat="27.3522480067" lon="-82.4921923332">
        <ele>8.060009</ele>
        <time>2024-01-07T08:45:30.000Z</time>
      </trkpt>
      <trkpt lat="27.3522550067" lon="-82.4931726665">
        <ele>8.329992</ele>
        <time>2024-01-07T08:45:40.000Z</time>
      </trkpt>
      <trkpt lat="27.352279" lon="-82.494146">
        <ele>8.320001</ele>
        <time>2024-01-07T08:45:50.000Z</time>
      </trkpt>
      <trkpt lat="27.352271" lon="-82.494812">
        <ele>8.379996</ele>
        <time>2024-01-07T08:45:57.000Z</time>
      </trkpt>
      <trkpt lat="27.3523000019" lon="-82.4955639998">
        <ele>8.499998</ele>
        <time>2024-01-07T08:46:04.000Z</time>
      </trkpt>
      <trkpt lat="27.352347" lon="-82.496289">
        <ele>8.59</ele>
        <time>2024-01-07T08:46:11.000Z</time>
      </trkpt>
      <trkpt lat="27.3523330009" lon="-82.496814">
        <ele>8.490004</ele>
        <time>2024-01-07T08:46:16.000Z</time>
      </trkpt>
      <trkpt lat="27.352348" lon="-82.497324">
        <ele>8.259993</ele>
        <time>2024-01-07T08:46:21.000Z</time>
      </trkpt>
      <trkpt lat="27.352399" lon="-82.497466">
        <ele>8.109992</ele>
        <time>2024-01-07T08:46:23.000Z</time>
      </trkpt>
      <trkpt lat="27.352371" lon="-82.498032">
        <ele>7.990003</ele>
        <time>2024-01-07T08:46:29.000Z</time>
      </trkpt>
      <trkpt lat="27.352381" lon="-82.498748">
        <ele>8.150003</ele>
        <time>2024-01-07T08:46:36.000Z</time>
      </trkpt>
      <trkpt lat="27.3523840027" lon="-82.4996240001">
        <ele>8.630001</ele>
        <time>2024-01-07T08:46:45.000Z</time>
      </trkpt>
      <trkpt lat="27.352366" lon="-82.500496">
        <ele>8.55</ele>
        <time>2024-01-07T08:46:54.000Z</time>
      </trkpt>
      <trkpt lat="27.3523586705" lon="-82.5012396667">
        <ele>8.669992</ele>
        <time>2024-01-07T08:47:01.000Z</time>
      </trkpt>
      <trkpt lat="27.3523593372" lon="-82.5019683333">
        <ele>8.730005</ele>
        <time>2024-01-07T08:47:08.000Z</time>
      </trkpt>
      <trkpt lat="27.352351" lon="-82.502717">
        <ele>8.61</ele>
        <time>2024-01-07T08:47:15.000Z</time>
      </trkpt>
      <trkpt lat="27.352363002" lon="-82.503467">
        <ele>8.699996</ele>
        <time>2024-01-07T08:47:22.000Z</time>
      </trkpt>
      <trkpt lat="27.352369" lon="-82.504213">
        <ele>8.720007</ele>
        <time>2024-01-07T08:47:29.000Z</time>
      </trkpt>
      <trkpt lat="27.352366" lon="-82.504743">
        <ele>8.669994</ele>
        <time>2024-01-07T08:47:34.000Z</time>
      </trkpt>
      <trkpt lat="27.352367" lon="-82.50568">
        <ele>8.990006</ele>
        <time>2024-01-07T08:47:43.000Z</time>
      </trkpt>
      <trkpt lat="27.352598" lon="-82.505695">
        <ele>8.590008</ele>
        <time>2024-01-07T08:47:46.000Z</time>
      </trkpt>
      <trkpt lat="27.3532686667" lon="-82.5056863333">
        <ele>8.650001</ele>
        <time>2024-01-07T08:47:53.000Z</time>
      </trkpt>
      <trkpt lat="27.3539283334" lon="-82.5056976666">
        <ele>8.859993</ele>
        <time>2024-01-07T08:48:00.000Z</time>
      </trkpt>
      <trkpt lat="27.354594" lon="-82.505694">
        <ele>8.869996</ele>
        <time>2024-01-07T08:48:07.000Z</time>
      </trkpt>
      <trkpt lat="27.355296" lon="-82.505675">
        <ele>9.059999</ele>
        <time>2024-01-07T08:48:15.000Z</time>
      </trkpt>
      <trkpt lat="27.356179" lon="-82.5056809997">
        <ele>9.370002</ele>
        <time>2024-01-07T08:48:25.000Z</time>
      </trkpt>
      <trkpt lat="27.357066" lon="-82.5056799996">
        <ele>9.229991</ele>
        <time>2024-01-07T08:48:35.000Z</time>
      </trkpt>
      <trkpt lat="27.357962" lon="-82.5057019996">
        <ele>9.440009</ele>
        <time>2024-01-07T08:48:45.000Z</time>
      </trkpt>
      <trkpt lat="27.358848" lon="-82.5057019997">
        <ele>9.409994</ele>
        <time>2024-01-07T08:48:55.000Z</time>
      </trkpt>
      <trkpt lat="27.359728" lon="-82.505706">
        <ele>9.970009</ele>
        <time>2024-01-07T08:49:05.000Z</time>
      </trkpt>
      <trkpt lat="27.359864" lon="-82.505689">
        <ele>9.940008</ele>
        <time>2024-01-07T08:49:07.000Z</time>
      </trkpt>
      <trkpt lat="27.36075" lon="-82.5056670001">
        <ele>9.570005</ele>
        <time>2024-01-07T08:49:17.000Z</time>
      </trkpt>
      <trkpt lat="27.361622" lon="-82.505657">
        <ele>9.459998</ele>
        <time>2024-01-07T08:49:27.000Z</time>
      </trkpt>
      <trkpt lat="27.36251825" lon="-82.5056455001">
        <ele>9.509997</ele>
        <time>2024-01-07T08:49:37.000Z</time>
      </trkpt>
      <trkpt lat="27.3634045" lon="-82.5056450002">
        <ele>9.530009</ele>
        <time>2024-01-07T08:49:47.000Z</time>
      </trkpt>
      <trkpt lat="27.36429775" lon="-82.5056425003">
        <ele>9.709993</ele>
        <time>2024-01-07T08:49:57.000Z</time>
      </trkpt>
      <trkpt lat="27.365171" lon="-82.5056490003">
        <ele>10.299998</ele>
        <time>2024-01-07T08:50:07.000Z</time>
      </trkpt>
      <trkpt lat="27.36605725" lon="-82.5056435003">
        <ele>10.880004</ele>
        <time>2024-01-07T08:50:17.000Z</time>
      </trkpt>
      <trkpt lat="27.3669495" lon="-82.5056330002">
        <ele>11.340007</ele>
        <time>2024-01-07T08:50:27.000Z</time>
      </trkpt>
      <trkpt lat="27.36782875" lon="-82.5056375001">
        <ele>11.070005</ele>
        <time>2024-01-07T08:50:37.000Z</time>
      </trkpt>
      <trkpt lat="27.368729" lon="-82.505638">
        <ele>10.910002</ele>
        <time>2024-01-07T08:50:47.000Z</time>
      </trkpt>
      <trkpt lat="27.3695558182" lon="-82.505629909">
        <ele>10.920005</ele>
        <time>2024-01-07T08:50:56.000Z</time>
      </trkpt>
      <trkpt lat="27.3703836364" lon="-82.5056288181">
        <ele>10.749993</ele>
        <time>2024-01-07T08:51:05.000Z</time>
      </trkpt>
      <trkpt lat="27.3712104545" lon="-82.5056287271">
        <ele>10.63</ele>
        <time>2024-01-07T08:51:14.000Z</time>
      </trkpt>
      <trkpt lat="27.3720382727" lon="-82.5056336362">
        <ele>10.459994</ele>
        <time>2024-01-07T08:51:23.000Z</time>
      </trkpt>
      <trkpt lat="27.3728740909" lon="-82.5056255452">
        <ele>10.339995</ele>
        <time>2024-01-07T08:51:32.000Z</time>
      </trkpt>
      <trkpt lat="27.3737129091" lon="-82.5056354543">
        <ele>10.100001</ele>
        <time>2024-01-07T08:51:41.000Z</time>
      </trkpt>
      <trkpt lat="27.3745467273" lon="-82.5056333634">
        <ele>10.139996</ele>
        <time>2024-01-07T08:51:50.000Z</time>
      </trkpt>
      <trkpt lat="27.3753805455" lon="-82.5056352726">
        <ele>9.839997</ele>
        <time>2024-01-07T08:51:59.000Z</time>
      </trkpt>
      <trkpt lat="27.3761973636" lon="-82.5056361817">
        <ele>9.629996</ele>
        <time>2024-01-07T08:52:08.000Z</time>
      </trkpt>
      <trkpt lat="27.3770371818" lon="-82.5056400908">
        <ele>9.569996</ele>
        <time>2024-01-07T08:52:17.000Z</time>
      </trkpt>
      <trkpt lat="27.377879" lon="-82.505633">
        <ele>9.729991</ele>
        <time>2024-01-07T08:52:26.000Z</time>
      </trkpt>
      <trkpt lat="27.378651" lon="-82.5056280002">
        <ele>9.800004</ele>
        <time>2024-01-07T08:52:35.000Z</time>
      </trkpt>
      <trkpt lat="27.379425" lon="-82.5056200003">
        <ele>9.860001</ele>
        <time>2024-01-07T08:52:44.000Z</time>
      </trkpt>
      <trkpt lat="27.380203" lon="-82.5056130003">
        <ele>9.900006</ele>
        <time>2024-01-07T08:52:53.000Z</time>
      </trkpt>
      <trkpt lat="27.380978" lon="-82.5056080002">
        <ele>10.06</ele>
        <time>2024-01-07T08:53:02.000Z</time>
      </trkpt>
      <trkpt lat="27.381749" lon="-82.5056">
        <ele>10.110001</ele>
        <time>2024-01-07T08:53:11.000Z</time>
      </trkpt>
      <trkpt lat="27.381744" lon="-82.505244">
        <ele>9.819994</ele>
        <time>2024-01-07T08:53:15.000Z</time>
      </trkpt>
      <trkpt lat="27.381758" lon="-82.505224">
        <ele>9.819995</ele>
        <time>2024-01-07T08:53:15.000Z</time>
      </trkpt>
      <trkpt lat="27.381741" lon="-82.504407">
        <ele>9.440003</ele>
        <time>2024-01-07T08:53:23.000Z</time>
      </trkpt>
      <trkpt lat="27.381724" lon="-82.504179">
        <ele>9.440005</ele>
        <time>2024-01-07T08:53:25.000Z</time>
      </trkpt>
      <trkpt lat="27.38161" lon="-82.503899">
        <ele>9.380002</ele>
        <time>2024-01-07T08:53:28.000Z</time>
      </trkpt>
      <trkpt lat="27.38121" lon="-82.503281">
        <ele>9.500004</ele>
        <time>2024-01-07T08:53:36.000Z</time>
      </trkpt>
      <trkpt lat="27.381088" lon="-82.503008">
        <ele>9.599991</ele>
        <time>2024-01-07T08:53:39.000Z</time>
      </trkpt>
      <trkpt lat="27.381044" lon="-82.502797">
        <ele>9.620004</ele>
        <time>2024-01-07T08:53:41.000Z</time>
      </trkpt>
      <trkpt lat="27.3810240294" lon="-82.501827999">
        <ele>9.180008</ele>
        <time>2024-01-07T08:53:51.000Z</time>
      </trkpt>
      <trkpt lat="27.3810190523" lon="-82.5008679982">
        <ele>8.840002</ele>
        <time>2024-01-07T08:54:00.000Z</time>
      </trkpt>
      <trkpt lat="27.3809940687" lon="-82.4999239976">
        <ele>8.860007</ele>
        <time>2024-01-07T08:54:09.000Z</time>
      </trkpt>
      <trkpt lat="27.3809910785" lon="-82.4989569973">
        <ele>9.009997</ele>
        <time>2024-01-07T08:54:19.000Z</time>
      </trkpt>
      <trkpt lat="27.3809750818" lon="-82.4980019972">
        <ele>9.049994</ele>
        <time>2024-01-07T08:54:28.000Z</time>
      </trkpt>
      <trkpt lat="27.3809690785" lon="-82.4970429973">
        <ele>8.639999</ele>
        <time>2024-01-07T08:54:37.000Z</time>
      </trkpt>
      <trkpt lat="27.3809430687" lon="-82.4960799977">
        <ele>8.640005</ele>
        <time>2024-01-07T08:54:47.000Z</time>
      </trkpt>
      <trkpt lat="27.3809330523" lon="-82.4951219982">
        <ele>8.540006</ele>
        <time>2024-01-07T08:54:56.000Z</time>
      </trkpt>
      <trkpt lat="27.3809300294" lon="-82.494163999">
        <ele>8.5</ele>
        <time>2024-01-07T08:55:05.000Z</time>
      </trkpt>
      <trkpt lat="27.380911" lon="-82.493215">
        <ele>8.970002</ele>
        <time>2024-01-07T08:55:14.000Z</time>
      </trkpt>
      <trkpt lat="27.3800695714" lon="-82.4932067141">
        <ele>9.019999</ele>
        <time>2024-01-07T08:55:23.000Z</time>
      </trkpt>
      <trkpt lat="27.3792561429" lon="-82.4932084282">
        <ele>9.059996</ele>
        <time>2024-01-07T08:55:32.000Z</time>
      </trkpt>
      <trkpt lat="27.3784067143" lon="-82.4932051425">
        <ele>9.049991</ele>
        <time>2024-01-07T08:55:41.000Z</time>
      </trkpt>
      <trkpt lat="27.3775792857" lon="-82.4931948568">
        <ele>8.930002</ele>
        <time>2024-01-07T08:55:50.000Z</time>
      </trkpt>
      <trkpt lat="27.3767458571" lon="-82.4931975711">
        <ele>8.570003</ele>
        <time>2024-01-07T08:55:59.000Z</time>
      </trkpt>
      <trkpt lat="27.3759304286" lon="-82.4931762855">
        <ele>8.400002</ele>
        <time>2024-01-07T08:56:08.000Z</time>
      </trkpt>
      <trkpt lat="27.37509" lon="-82.493179">
        <ele>8.700007</ele>
        <time>2024-01-07T08:56:17.000Z</time>
      </trkpt>
      <trkpt lat="27.374321" lon="-82.493197">
        <ele>8.9</ele>
        <time>2024-01-07T08:56:26.000Z</time>
      </trkpt>
      <trkpt lat="27.374141" lon="-82.493148">
        <ele>9.150006</ele>
        <time>2024-01-07T08:56:28.000Z</time>
      </trkpt>
      <trkpt lat="27.374153" lon="-82.492774">
        <ele>9.089992</ele>
        <time>2024-01-07T08:56:32.000Z</time>
      </trkpt>
      <trkpt lat="27.374163" lon="-82.492797">
        <ele>9.089991</ele>
        <time>2024-01-07T08:56:32.000Z</time>
      </trkpt>
      <trkpt lat="27.3741670096" lon="-82.4918365004">
        <ele>9.330004</ele>
        <time>2024-01-07T08:56:41.000Z</time>
      </trkpt>
      <trkpt lat="27.3741820128" lon="-82.4908890005">
        <ele>9.369996</ele>
        <time>2024-01-07T08:56:50.000Z</time>
      </trkpt>
      <trkpt lat="27.3742080096" lon="-82.4899535004">
        <ele>9.470006</ele>
        <time>2024-01-07T08:56:59.000Z</time>
      </trkpt>
      <trkpt lat="27.374228" lon="-82.489005">
        <ele>9.549995</ele>
        <time>2024-01-07T08:57:08.000Z</time>
      </trkpt>
      <trkpt lat="27.3742170076" lon="-82.4881630001">
        <ele>9.559994</ele>
        <time>2024-01-07T08:57:16.000Z</time>
      </trkpt>
      <trkpt lat="27.3742340102" lon="-82.4873090002">
        <ele>9.530007</ele>
        <time>2024-01-07T08:57:24.000Z</time>
      </trkpt>
      <trkpt lat="27.3742440076" lon="-82.4864650002">
        <ele>9.550006</ele>
        <time>2024-01-07T08:57:32.000Z</time>
      </trkpt>
      <trkpt lat="27.374241" lon="-82.485626">
        <ele>9.560005</ele>
        <time>2024-01-07T08:57:40.000Z</time>
      </trkpt>
      <trkpt lat="27.3742290136" lon="-82.4846339996">
        <ele>9.710009</ele>
        <time>2024-01-07T08:57:50.000Z</time>
      </trkpt>
      <trkpt lat="27.3742070204" lon="-82.4836699994">
        <ele>9.470002</ele>
        <time>2024-01-07T08:58:00.000Z</time>
      </trkpt>
      <trkpt lat="27.3741990204" lon="-82.4826899994">
        <ele>9.189996</ele>
        <time>2024-01-07T08:58:10.000Z</time>
      </trkpt>
      <trkpt lat="27.3741980136" lon="-82.4817119996">
        <ele>9.029997</ele>
        <time>2024-01-07T08:58:20.000Z</time>
      </trkpt>
      <trkpt lat="27.374189" lon="-82.480722">
        <ele>8.930002</ele>
        <time>2024-01-07T08:58:30.000Z</time>
      </trkpt>
      <trkpt lat="27.3741660283" lon="-82.4797869983">
        <ele>8.52</ele>
        <time>2024-01-07T08:58:39.000Z</time>
      </trkpt>
      <trkpt lat="27.3741440503" lon="-82.478848997">
        <ele>8.450005</ele>
        <time>2024-01-07T08:58:48.000Z</time>
      </trkpt>
      <trkpt lat="27.374107066" lon="-82.4779049961">
        <ele>8.469992</ele>
        <time>2024-01-07T08:58:57.000Z</time>
      </trkpt>
      <trkpt lat="27.3740990754" lon="-82.4769759955">
        <ele>8.190002</ele>
        <time>2024-01-07T08:59:06.000Z</time>
      </trkpt>
      <trkpt lat="27.3740650785" lon="-82.4760429954">
        <ele>7.869991</ele>
        <time>2024-01-07T08:59:15.000Z</time>
      </trkpt>
      <trkpt lat="27.3740430754" lon="-82.4751039956">
        <ele>7.789994</ele>
        <time>2024-01-07T08:59:24.000Z</time>
      </trkpt>
      <trkpt lat="27.374031066" lon="-82.4741639961">
        <ele>7.379995</ele>
        <time>2024-01-07T08:59:33.000Z</time>
      </trkpt>
      <trkpt lat="27.3740020503" lon="-82.4732139971">
        <ele>7.430009</ele>
        <time>2024-01-07T08:59:42.000Z</time>
      </trkpt>
      <trkpt lat="27.3739870283" lon="-82.4722849984">
        <ele>7.299997</ele>
        <time>2024-01-07T08:59:51.000Z</time>
      </trkpt>
      <trkpt lat="27.373958" lon="-82.471347">
        <ele>7.799993</ele>
        <time>2024-01-07T09:00:00.000Z</time>
      </trkpt>
      <trkpt lat="27.373995" lon="-82.471252">
        <ele>7.799993</ele>
        <time>2024-01-07T09:00:01.000Z</time>
      </trkpt>
      <trkpt lat="27.374888" lon="-82.471239">
        <ele>7.859992</ele>
        <time>2024-01-07T09:00:11.000Z</time>
      </trkpt>
      <trkpt lat="27.374885" lon="-82.471236">
        <ele>7.860009</ele>
        <time>2024-01-07T09:00:11.000Z</time>
      </trkpt>
      <trkpt lat="27.3755765" lon="-82.471228">
        <ele>8.09</ele>
        <time>2024-01-07T09:00:19.000Z</time>
      </trkpt>
      <trkpt lat="27.376237" lon="-82.471234">
        <ele>8.23</ele>
        <time>2024-01-07T09:00:26.000Z</time>
      </trkpt>
      <trkpt lat="27.3769315001" lon="-82.471229">
        <ele>8.170007</ele>
        <time>2024-01-07T09:00:34.000Z</time>
      </trkpt>
      <trkpt lat="27.377608" lon="-82.471235">
        <ele>8.180001</ele>
        <time>2024-01-07T09:00:42.000Z</time>
      </trkpt>
      <trkpt lat="27.378319" lon="-82.4712310002">
        <ele>8.260008</ele>
        <time>2024-01-07T09:00:50.000Z</time>
      </trkpt>
      <trkpt lat="27.37906" lon="-82.4712160002">
        <ele>8.200006</ele>
        <time>2024-01-07T09:00:58.000Z</time>
      </trkpt>
      <trkpt lat="27.379788" lon="-82.4712110002">
        <ele>8.169998</ele>
        <time>2024-01-07T09:01:06.000Z</time>
      </trkpt>
      <trkpt lat="27.380511" lon="-82.4712130002">
        <ele>7.849996</ele>
        <time>2024-01-07T09:01:14.000Z</time>
      </trkpt>
      <trkpt lat="27.381245" lon="-82.471209">
        <ele>8.209996</ele>
        <time>2024-01-07T09:01:22.000Z</time>
      </trkpt>
      <trkpt lat="27.3812240016" lon="-82.4705379999">
        <ele>7.979995</ele>
        <time>2024-01-07T09:01:29.000Z</time>
      </trkpt>
      <trkpt lat="27.381224" lon="-82.469876">
        <ele>8.100006</ele>
        <time>2024-01-07T09:01:36.000Z</time>
      </trkpt>
      <trkpt lat="27.381217" lon="-82.469891">
        <ele>8.099991</ele>
        <time>2024-01-07T09:01:36.000Z</time>
      </trkpt>
      <trkpt lat="27.3812040124" lon="-82.4689559996">
        <ele>8.199999</ele>
        <time>2024-01-07T09:01:45.000Z</time>
      </trkpt>
      <trkpt lat="27.3811960186" lon="-82.4680289993">
        <ele>8.17</ele>
        <time>2024-01-07T09:01:54.000Z</time>
      </trkpt>
      <trkpt lat="27.3811900186" lon="-82.4670849993">
        <ele>8.180002</ele>
        <time>2024-01-07T09:02:03.000Z</time>
      </trkpt>
      <trkpt lat="27.3811670124" lon="-82.4661659995">
        <ele>7.869993</ele>
        <time>2024-01-07T09:02:12.000Z</time>
      </trkpt>
      <trkpt lat="27.381152" lon="-82.465233">
        <ele>7.619999</ele>
        <time>2024-01-07T09:02:21.000Z</time>
      </trkpt>
      <trkpt lat="27.3811570021" lon="-82.4644739998">
        <ele>7.159994</ele>
        <time>2024-01-07T09:02:28.000Z</time>
      </trkpt>
      <trkpt lat="27.381148" lon="-82.463696">
        <ele>7.600007</ele>
        <time>2024-01-07T09:02:36.000Z</time>
      </trkpt>
      <trkpt lat="27.381103" lon="-82.46361">
        <ele>7.600003</ele>
        <time>2024-01-07T09:02:37.000Z</time>
      </trkpt>
      <trkpt lat="27.3810960099" lon="-82.4627749998">
        <ele>7.120005</ele>
        <time>2024-01-07T09:02:45.000Z</time>
      </trkpt>
      <trkpt lat="27.3810900148" lon="-82.4619509998">
        <ele>7.170008</ele>
        <time>2024-01-07T09:02:53.000Z</time>
      </trkpt>
      <trkpt lat="27.3810790148" lon="-82.4611049998">
        <ele>7.359996</ele>
        <time>2024-01-07T09:03:01.000Z</time>
      </trkpt>
      <trkpt lat="27.3810740099" lon="-82.4602899999">
        <ele>7.149991</ele>
        <time>2024-01-07T09:03:09.000Z</time>
      </trkpt>
      <trkpt lat="27.381065" lon="-82.459454">
        <ele>7.370006</ele>
        <time>2024-01-07T09:03:17.000Z</time>
      </trkpt>
      <trkpt lat="27.381024" lon="-82.458858">
        <ele>7.270006</ele>
        <time>2024-01-07T09:03:23.000Z</time>
      </trkpt>
      <trkpt lat="27.381004" lon="-82.458559">
        <ele>7.170002</ele>
        <time>2024-01-07T09:03:26.000Z</time>
      </trkpt>
      <trkpt lat="27.381016" lon="-82.45837">
        <ele>7.110007</ele>
        <time>2024-01-07T09:03:28.000Z</time>
      </trkpt>
      <trkpt lat="27.381088" lon="-82.458011">
        <ele>6.979994</ele>
        <time>2024-01-07T09:03:32.000Z</time>
      </trkpt>
      <trkpt lat="27.381187" lon="-82.457735">
        <ele>6.919992</ele>
        <time>2024-01-07T09:03:35.000Z</time>
      </trkpt>
      <trkpt lat="27.381283" lon="-82.457285">
        <ele>6.780001</ele>
        <time>2024-01-07T09:03:40.000Z</time>
      </trkpt>
      <trkpt lat="27.381319" lon="-82.456983">
        <ele>6.780008</ele>
        <time>2024-01-07T09:03:43.000Z</time>
      </trkpt>
      <trkpt lat="27.381326" lon="-82.456588">
        <ele>6.810001</ele>
        <time>2024-01-07T09:03:47.000Z</time>
      </trkpt>
      <trkpt lat="27.381296" lon="-82.456185">
        <ele>6.869999</ele>
        <time>2024-01-07T09:03:51.000Z</time>
      </trkpt>
      <trkpt lat="27.381232" lon="-82.456011">
        <ele>6.870007</ele>
        <time>2024-01-07T09:03:53.000Z</time>
      </trkpt>
      <trkpt lat="27.381082" lon="-82.455859">
        <ele>6.870001</ele>
        <time>2024-01-07T09:03:55.000Z</time>
      </trkpt>
      <trkpt lat="27.380844" lon="-82.455811">
        <ele>6.839991</ele>
        <time>2024-01-07T09:03:58.000Z</time>
      </trkpt>
      <trkpt lat="27.380825" lon="-82.455819">
        <ele>6.840002</ele>
        <time>2024-01-07T09:03:58.000Z</time>
      </trkpt>
      <trkpt lat="27.380249" lon="-82.455735">
        <ele>6.790002</ele>
        <time>2024-01-07T09:04:04.000Z</time>
      </trkpt>
      <trkpt lat="27.379567" lon="-82.455671">
        <ele>6.660002</ele>
        <time>2024-01-07T09:04:12.000Z</time>
      </trkpt>
      <trkpt lat="27.379381" lon="-82.455599">
        <ele>6.660003</ele>
        <time>2024-01-07T09:04:14.000Z</time>
      </trkpt>
      <trkpt lat="27.378998" lon="-82.455373">
        <ele>6.549998</ele>
        <time>2024-01-07T09:04:19.000Z</time>
      </trkpt>
      <trkpt lat="27.378812" lon="-82.455228">
        <ele>6.570005</ele>
        <time>2024-01-07T09:04:22.000Z</time>
      </trkpt>
      <trkpt lat="27.378238" lon="-82.454655">
        <ele>7.009995</ele>
        <time>2024-01-07T09:04:31.000Z</time>
      </trkpt>
      <trkpt lat="27.377924" lon="-82.454275">
        <ele>7.510007</ele>
        <time>2024-01-07T09:04:36.000Z</time>
      </trkpt>
      <trkpt lat="27.377801" lon="-82.454027">
        <ele>7.579999</ele>
        <time>2024-01-07T09:04:39.000Z</time>
      </trkpt>
      <trkpt lat="27.377725" lon="-82.453571">
        <ele>8.519991</ele>
        <time>2024-01-07T09:04:44.000Z</time>
      </trkpt>
      <trkpt lat="27.377702" lon="-82.452773">
        <ele>10.220008</ele>
        <time>2024-01-07T09:04:52.000Z</time>
      </trkpt>
      <trkpt lat="27.377677" lon="-82.452365">
        <ele>8.75</ele>
        <time>2024-01-07T09:04:56.000Z</time>
      </trkpt>
      <trkpt lat="27.377615" lon="-82.452182">
        <ele>8.300004</ele>
        <time>2024-01-07T09:04:58.000Z</time>
      </trkpt>
      <trkpt lat="27.377516" lon="-82.451915">
        <ele>6.689998</ele>
        <time>2024-01-07T09:05:01.000Z</time>
      </trkpt>
      <trkpt lat="27.377378" lon="-82.451746">
        <ele>6.199995</ele>
        <time>2024-01-07T09:05:03.000Z</time>
      </trkpt>
      <trkpt lat="27.3769640008" lon="-82.4512479981">
        <ele>7.659997</ele>
        <time>2024-01-07T09:05:10.000Z</time>
      </trkpt>
      <trkpt lat="27.376537" lon="-82.450751">
        <ele>9.960004</ele>
        <time>2024-01-07T09:05:17.000Z</time>
      </trkpt>
      <trkpt lat="27.376546" lon="-82.450765">
        <ele>9.960008</ele>
        <time>2024-01-07T09:05:17.000Z</time>
      </trkpt>
      <trkpt lat="27.3761650005" lon="-82.4503519985">
        <ele>10.360007</ele>
        <time>2024-01-07T09:05:23.000Z</time>
      </trkpt>
      <trkpt lat="27.375802" lon="-82.449936">
        <ele>10.639996</ele>
        <time>2024-01-07T09:05:29.000Z</time>
      </trkpt>
      <trkpt lat="27.375438" lon="-82.449458">
        <ele>9.940006</ele>
        <time>2024-01-07T09:05:35.000Z</time>
      </trkpt>
      <trkpt lat="27.375077" lon="-82.448708">
        <ele>7.420005</ele>
        <time>2024-01-07T09:05:43.000Z</time>
      </trkpt>
      <trkpt lat="27.374938" lon="-82.448489">
        <ele>7.020005</ele>
        <time>2024-01-07T09:05:46.000Z</time>
      </trkpt>
      <trkpt lat="27.374692" lon="-82.448193">
        <ele>6.510009</ele>
        <time>2024-01-07T09:05:50.000Z</time>
      </trkpt>
      <trkpt lat="27.374254" lon="-82.447837">
        <ele>6.620008</ele>
        <time>2024-01-07T09:05:56.000Z</time>
      </trkpt>
      <trkpt lat="27.373964" lon="-82.447674">
        <ele>7.189996</ele>
        <time>2024-01-07T09:06:00.000Z</time>
      </trkpt>
      <trkpt lat="27.373619" lon="-82.44753">
        <ele>7.689997</ele>
        <time>2024-01-07T09:06:04.000Z</time>
      </trkpt>
      <trkpt lat="27.373212" lon="-82.447442">
        <ele>7.870006</ele>
        <time>2024-01-07T09:06:09.000Z</time>
      </trkpt>
      <trkpt lat="27.372485" lon="-82.4474239999">
        <ele>8.469997</ele>
        <time>2024-01-07T09:06:17.000Z</time>
      </trkpt>
      <trkpt lat="27.3717729999" lon="-82.4474279999">
        <ele>8.430005</ele>
        <time>2024-01-07T09:06:25.000Z</time>
      </trkpt>
      <trkpt lat="27.371045" lon="-82.447413">
        <ele>8.260003</ele>
        <time>2024-01-07T09:06:33.000Z</time>
      </trkpt>
      <trkpt lat="27.3702028333" lon="-82.4474076668">
        <ele>7.759998</ele>
        <time>2024-01-07T09:06:42.000Z</time>
      </trkpt>
      <trkpt lat="27.3693656667" lon="-82.4474213336">
        <ele>7.280009</ele>
        <time>2024-01-07T09:06:51.000Z</time>
      </trkpt>
      <trkpt lat="27.3685245" lon="-82.4474090003">
        <ele>7.420008</ele>
        <time>2024-01-07T09:07:00.000Z</time>
      </trkpt>
      <trkpt lat="27.3676653333" lon="-82.4474136671">
        <ele>7.760009</ele>
        <time>2024-01-07T09:07:10.000Z</time>
      </trkpt>
      <trkpt lat="27.3668281667" lon="-82.4474113338">
        <ele>7.980002</ele>
        <time>2024-01-07T09:07:19.000Z</time>
      </trkpt>
      <trkpt lat="27.365988" lon="-82.4474240005">
        <ele>7.620003</ele>
        <time>2024-01-07T09:07:28.000Z</time>
      </trkpt>
      <trkpt lat="27.3651348333" lon="-82.4474266671">
        <ele>7.470005</ele>
        <time>2024-01-07T09:07:37.000Z</time>
      </trkpt>
      <trkpt lat="27.3643056667" lon="-82.4474153337">
        <ele>7.100003</ele>
        <time>2024-01-07T09:07:46.000Z</time>
      </trkpt>
      <trkpt lat="27.3634545" lon="-82.4474260003">
        <ele>7.379992</ele>
        <time>2024-01-07T09:07:55.000Z</time>
      </trkpt>
      <trkpt lat="27.3626113333" lon="-82.4474206669">
        <ele>7.679996</ele>
        <time>2024-01-07T09:08:04.000Z</time>
      </trkpt>
      <trkpt lat="27.3617701667" lon="-82.4474233335">
        <ele>7.980005</ele>
        <time>2024-01-07T09:08:13.000Z</time>
      </trkpt>
      <trkpt lat="27.360919" lon="-82.447434">
        <ele>8.329994</ele>
        <time>2024-01-07T09:08:22.000Z</time>
      </trkpt>
      <trkpt lat="27.3601953333" lon="-82.4474970008">
        <ele>8.409997</ele>
        <time>2024-01-07T09:08:30.000Z</time>
      </trkpt>
      <trkpt lat="27.3594806665" lon="-82.4475560008">
        <ele>8.299996</ele>
        <time>2024-01-07T09:08:38.000Z</time>
      </trkpt>
      <trkpt lat="27.358764" lon="-82.447608">
        <ele>8.470001</ele>
        <time>2024-01-07T09:08:46.000Z</time>
      </trkpt>
      <trkpt lat="27.358174" lon="-82.447624">
        <ele>8.820008</ele>
        <time>2024-01-07T09:08:53.000Z</time>
      </trkpt>
      <trkpt lat="27.3574590001" lon="-82.447625">
        <ele>8.859997</ele>
        <time>2024-01-07T09:09:01.000Z</time>
      </trkpt>
      <trkpt lat="27.35675" lon="-82.447627">
        <ele>8.66</ele>
        <time>2024-01-07T09:09:09.000Z</time>
      </trkpt>
      <trkpt lat="27.356173" lon="-82.447573">
        <ele>8.809999</ele>
        <time>2024-01-07T09:09:15.000Z</time>
      </trkpt>
      <trkpt lat="27.356" lon="-82.447553">
        <ele>8.910004</ele>
        <time>2024-01-07T09:09:17.000Z</time>
      </trkpt>
      <trkpt lat="27.3555390003" lon="-82.4474739997">
        <ele>8.82</ele>
        <time>2024-01-07T09:09:22.000Z</time>
      </trkpt>
      <trkpt lat="27.355091" lon="-82.447409">
        <ele>8.679993</ele>
        <time>2024-01-07T09:09:27.000Z</time>
      </trkpt>
      <trkpt lat="27.354495" lon="-82.447347">
        <ele>8.659999</ele>
        <time>2024-01-07T09:09:34.000Z</time>
      </trkpt>
      <trkpt lat="27.353663" lon="-82.447313">
        <ele>8.969995</ele>
        <time>2024-01-07T09:09:43.000Z</time>
      </trkpt>
      <trkpt lat="27.352782" lon="-82.447316">
        <ele>8.850001</ele>
        <time>2024-01-07T09:09:53.000Z</time>
      </trkpt>
      <trkpt lat="27.351897" lon="-82.447322">
        <ele>8.500006</ele>
        <time>2024-01-07T09:10:03.000Z</time>
      </trkpt>
      <trkpt lat="27.351017" lon="-82.447317">
        <ele>8.369998</ele>
        <time>2024-01-07T09:10:13.000Z</time>
      </trkpt>
      <trkpt lat="27.350124" lon="-82.447324">
        <ele>8.619992</ele>
        <time>2024-01-07T09:10:23.000Z</time>
      </trkpt>
      <trkpt lat="27.34924" lon="-82.447322">
        <ele>8.509994</ele>
        <time>2024-01-07T09:10:33.000Z</time>
      </trkpt>
      <trkpt lat="27.34836" lon="-82.447312">
        <ele>8.510004</ele>
        <time>2024-01-07T09:10:43.000Z</time>
      </trkpt>
      <trkpt lat="27.347461" lon="-82.4473350005">
        <ele>8.219999</ele>
        <time>2024-01-07T09:10:53.000Z</time>
      </trkpt>
      <trkpt lat="27.346571" lon="-82.4473570006">
        <ele>8.110005</ele>
        <time>2024-01-07T09:11:03.000Z</time>
      </trkpt>
      <trkpt lat="27.3456750001" lon="-82.4473720005">
        <ele>8.160007</ele>
        <time>2024-01-07T09:11:13.000Z</time>
      </trkpt>
      <trkpt lat="27.344781" lon="-82.447404">
        <ele>8.190009</ele>
        <time>2024-01-07T09:11:23.000Z</time>
      </trkpt>
      <trkpt lat="27.344502" lon="-82.44745">
        <ele>8.689994</ele>
        <time>2024-01-07T09:11:26.000Z</time>
      </trkpt>
      <trkpt lat="27.344238" lon="-82.447554">
        <ele>8.87</ele>
        <time>2024-01-07T09:11:29.000Z</time>
      </trkpt>
      <trkpt lat="27.344304" lon="-82.447811">
        <ele>8.790007</ele>
        <time>2024-01-07T09:11:32.000Z</time>
      </trkpt>
      <trkpt lat="27.344319" lon="-82.447822">
        <ele>8.789992</ele>
        <time>2024-01-07T09:11:32.000Z</time>
      </trkpt>
      <trkpt lat="27.344509" lon="-82.448522">
        <ele>8.870001</ele>
        <time>2024-01-07T09:11:39.000Z</time>
      </trkpt>
      <trkpt lat="27.344536" lon="-82.448698">
        <ele>8.869991</ele>
        <time>2024-01-07T09:11:41.000Z</time>
      </trkpt>
      <trkpt lat="27.344564" lon="-82.449056">
        <ele>9.220002</ele>
        <time>2024-01-07T09:11:45.000Z</time>
      </trkpt>
      <trkpt lat="27.344553011" lon="-82.4499240002">
        <ele>9.350007</ele>
        <time>2024-01-07T09:11:54.000Z</time>
      </trkpt>
      <trkpt lat="27.3445520165" lon="-82.4507980003">
        <ele>9.000007</ele>
        <time>2024-01-07T09:12:03.000Z</time>
      </trkpt>
      <trkpt lat="27.3445490165" lon="-82.4516790003">
        <ele>9.150002</ele>
        <time>2024-01-07T09:12:12.000Z</time>
      </trkpt>
      <trkpt lat="27.344528011" lon="-82.4525670002">
        <ele>9.000005</ele>
        <time>2024-01-07T09:12:21.000Z</time>
      </trkpt>
      <trkpt lat="27.344522" lon="-82.453438">
        <ele>9.149991</ele>
        <time>2024-01-07T09:12:30.000Z</time>
      </trkpt>
      <trkpt lat="27.344885" lon="-82.453449">
        <ele>8.850001</ele>
        <time>2024-01-07T09:12:34.000Z</time>
      </trkpt>
      <trkpt lat="27.344893" lon="-82.453448">
        <ele>8.850009</ele>
        <time>2024-01-07T09:12:34.000Z</time>
      </trkpt>
      <trkpt lat="27.345099" lon="-82.453435">
        <ele>8.750002</ele>
        <time>2024-01-07T09:12:36.000Z</time>
      </trkpt>
      <trkpt lat="27.345161" lon="-82.453474">
        <ele>8.75</ele>
        <time>2024-01-07T09:12:37.000Z</time>
      </trkpt>
      <trkpt lat="27.3458613332" lon="-82.4534823333">
        <ele>8.270005</ele>
        <time>2024-01-07T09:12:45.000Z</time>
      </trkpt>
      <trkpt lat="27.3465676665" lon="-82.4534846666">
        <ele>7.849997</ele>
        <time>2024-01-07T09:12:53.000Z</time>
      </trkpt>
      <trkpt lat="27.347266" lon="-82.453482">
        <ele>7.849999</ele>
        <time>2024-01-07T09:13:01.000Z</time>
      </trkpt>
      <trkpt lat="27.347406" lon="-82.453485">
        <ele>7.969998</ele>
        <time>2024-01-07T09:13:03.000Z</time>
      </trkpt>
      <trkpt lat="27.34772" lon="-82.453402">
        <ele>8.059992</ele>
        <time>2024-01-07T09:13:07.000Z</time>
      </trkpt>
      <trkpt lat="27.347969" lon="-82.453262">
        <ele>8.079998</ele>
        <time>2024-01-07T09:13:10.000Z</time>
      </trkpt>
      <trkpt lat="27.348302" lon="-82.453032">
        <ele>8.199999</ele>
        <time>2024-01-07T09:13:14.000Z</time>
      </trkpt>
      <trkpt lat="27.348682" lon="-82.452672">
        <ele>8.360001</ele>
        <time>2024-01-07T09:13:20.000Z</time>
      </trkpt>
      <trkpt lat="27.348878" lon="-82.452594">
        <ele>8.380004</ele>
        <time>2024-01-07T09:13:22.000Z</time>
      </trkpt>
      <trkpt lat="27.349321" lon="-82.452454">
        <ele>8.319995</ele>
        <time>2024-01-07T09:13:27.000Z</time>
      </trkpt>
      <trkpt lat="27.349492" lon="-82.452441">
        <ele>8.320002</ele>
        <time>2024-01-07T09:13:29.000Z</time>
      </trkpt>
      <trkpt lat="27.349923" lon="-82.452454">
        <ele>8.590003</ele>
        <time>2024-01-07T09:13:34.000Z</time>
      </trkpt>
      <trkpt lat="27.350155" lon="-82.452518">
        <ele>8.63</ele>
        <time>2024-01-07T09:13:37.000Z</time>
      </trkpt>
      <trkpt lat="27.350378" lon="-82.452588">
        <ele>8.620002</ele>
        <time>2024-01-07T09:13:40.000Z</time>
      </trkpt>
      <trkpt lat="27.350783" lon="-82.452782">
        <ele>8.429997</ele>
        <time>2024-01-07T09:13:45.000Z</time>
      </trkpt>
      <trkpt lat="27.351131" lon="-82.453039">
        <ele>8.480004</ele>
        <time>2024-01-07T09:13:50.000Z</time>
      </trkpt>
      <trkpt lat="27.351269" lon="-82.453183">
        <ele>8.449997</ele>
        <time>2024-01-07T09:13:52.000Z</time>
      </trkpt>
      <trkpt lat="27.351497" lon="-82.453523">
        <ele>8.480001</ele>
        <time>2024-01-07T09:13:56.000Z</time>
      </trkpt>
      <trkpt lat="27.351652" lon="-82.453795">
        <ele>8.580006</ele>
        <time>2024-01-07T09:13:59.000Z</time>
      </trkpt>
      <trkpt lat="27.351751" lon="-82.454032">
        <ele>8.659999</ele>
        <time>2024-01-07T09:14:02.000Z</time>
      </trkpt>
      <trkpt lat="27.351869" lon="-82.454466">
        <ele>8.590005</ele>
        <time>2024-01-07T09:14:06.000Z</time>
      </trkpt>
      <trkpt lat="27.351944" lon="-82.454872">
        <ele>8.599996</ele>
        <time>2024-01-07T09:14:10.000Z</time>
      </trkpt>
      <trkpt lat="27.351986" lon="-82.454922">
        <ele>8.570003</ele>
        <time>2024-01-07T09:14:11.000Z</time>
      </trkpt>
      <trkpt lat="27.352011" lon="-82.455005">
        <ele>8.580008</ele>
        <time>2024-01-07T09:14:12.000Z</time>
      </trkpt>
      <trkpt lat="27.351953" lon="-82.455034">
        <ele>8.639992</ele>
        <time>2024-01-07T09:14:13.000Z</time>
      </trkpt>
      <trkpt lat="27.351985" lon="-82.455568">
        <ele>8.479999</ele>
        <time>2024-01-07T09:14:18.000Z</time>
      </trkpt>
      <trkpt lat="27.351998" lon="-82.455554">
        <ele>8.48</ele>
        <time>2024-01-07T09:14:18.000Z</time>
      </trkpt>
      <trkpt lat="27.3519980051" lon="-82.4564013332">
        <ele>8.390009</ele>
        <time>2024-01-07T09:14:26.000Z</time>
      </trkpt>
      <trkpt lat="27.3520170051" lon="-82.4572416665">
        <ele>8.449995</ele>
        <time>2024-01-07T09:14:34.000Z</time>
      </trkpt>
      <trkpt lat="27.352022" lon="-82.458089">
        <ele>8.500003</ele>
        <time>2024-01-07T09:14:42.000Z</time>
      </trkpt>
      <trkpt lat="27.3520185063" lon="-82.458857">
        <ele>8.569994</ele>
        <time>2024-01-07T09:14:50.000Z</time>
      </trkpt>
      <trkpt lat="27.3520320084" lon="-82.4596269999">
        <ele>8.459998</ele>
        <time>2024-01-07T09:14:58.000Z</time>
      </trkpt>
      <trkpt lat="27.3520245063" lon="-82.460398">
        <ele>8.289999</ele>
        <time>2024-01-07T09:15:06.000Z</time>
      </trkpt>
      <trkpt lat="27.352021" lon="-82.461177">
        <ele>8.300009</ele>
        <time>2024-01-07T09:15:14.000Z</time>
      </trkpt>
      <trkpt lat="27.352022" lon="-82.462081">
        <ele>8.490008</ele>
        <time>2024-01-07T09:15:23.000Z</time>
      </trkpt>
      <trkpt lat="27.351979" lon="-82.462219">
        <ele>8.490003</ele>
        <time>2024-01-07T09:15:24.000Z</time>
      </trkpt>
      <trkpt lat="27.351966" lon="-82.462699">
        <ele>8.639994</ele>
        <time>2024-01-07T09:15:29.000Z</time>
      </trkpt>
      <trkpt lat="27.3519550015" lon="-82.463354">
        <ele>8.769996</ele>
        <time>2024-01-07T09:15:35.000Z</time>
      </trkpt>
      <trkpt lat="27.351948" lon="-82.463981">
        <ele>9.180001</ele>
        <time>2024-01-07T09:15:41.000Z</time>
      </trkpt>
      <trkpt lat="27.3519498045" lon="-82.4650019974">
        <ele>8.879994</ele>
        <time>2024-01-07T09:15:51.000Z</time>
      </trkpt>
      <trkpt lat="27.3519856017" lon="-82.4660069952">
        <ele>8.779992</ele>
        <time>2024-01-07T09:16:01.000Z</time>
      </trkpt>
      <trkpt lat="27.3519903917" lon="-82.4670199933">
        <ele>8.650005</ele>
        <time>2024-01-07T09:16:11.000Z</time>
      </trkpt>
      <trkpt lat="27.3520071744" lon="-82.4680239918">
        <ele>8.619991</ele>
        <time>2024-01-07T09:16:21.000Z</time>
      </trkpt>
      <trkpt lat="27.3520249498" lon="-82.4690409906">
        <ele>8.250008</ele>
        <time>2024-01-07T09:16:31.000Z</time>
      </trkpt>
      <trkpt lat="27.352056718" lon="-82.4700439897">
        <ele>8.469997</ele>
        <time>2024-01-07T09:16:41.000Z</time>
      </trkpt>
      <trkpt lat="27.3520764789" lon="-82.4710519892">
        <ele>8.309991</ele>
        <time>2024-01-07T09:16:51.000Z</time>
      </trkpt>
      <trkpt lat="27.3520922325" lon="-82.4720759891">
        <ele>8.06</ele>
        <time>2024-01-07T09:17:01.000Z</time>
      </trkpt>
      <trkpt lat="27.3521179789" lon="-82.4730869892">
        <ele>7.830001</ele>
        <time>2024-01-07T09:17:11.000Z</time>
      </trkpt>
      <trkpt lat="27.352130718" lon="-82.4740929897">
        <ele>7.469992</ele>
        <time>2024-01-07T09:17:21.000Z</time>
      </trkpt>
      <trkpt lat="27.3521374498" lon="-82.4750959906">
        <ele>7.209992</ele>
        <time>2024-01-07T09:17:31.000Z</time>
      </trkpt>
      <trkpt lat="27.3521581744" lon="-82.4761059918">
        <ele>7.139994</ele>
        <time>2024-01-07T09:17:41.000Z</time>
      </trkpt>
      <trkpt lat="27.3521928917" lon="-82.4771179933">
        <ele>7.190006</ele>
        <time>2024-01-07T09:17:51.000Z</time>
      </trkpt>
      <trkpt lat="27.3521936017" lon="-82.4781269952">
        <ele>6.909995</ele>
        <time>2024-01-07T09:18:01.000Z</time>
      </trkpt>
      <trkpt lat="27.3522203045" lon="-82.4791369974">
        <ele>7.010007</ele>
        <time>2024-01-07T09:18:11.000Z</time>
      </trkpt>
      <trkpt lat="27.352247" lon="-82.480159">
        <ele>6.900003</ele>
        <time>2024-01-07T09:18:21.000Z</time>
      </trkpt>
      <trkpt lat="27.3522420104" lon="-82.4810039998">
        <ele>7.17</ele>
        <time>2024-01-07T09:18:29.000Z</time>
      </trkpt>
      <trkpt lat="27.3522550156" lon="-82.4818559997">
        <ele>6.990009</ele>
        <time>2024-01-07T09:18:37.000Z</time>
      </trkpt>
      <trkpt lat="27.3522550156" lon="-82.4827069997">
        <ele>7.150007</ele>
        <time>2024-01-07T09:18:45.000Z</time>
      </trkpt>
      <trkpt lat="27.3522620104" lon="-82.4835749998">
        <ele>7.029998</ele>
        <time>2024-01-07T09:18:54.000Z</time>
      </trkpt>
      <trkpt lat="27.352271" lon="-82.484413">
        <ele>7.389992</ele>
        <time>2024-01-07T09:19:02.000Z</time>
      </trkpt>
      <trkpt lat="27.3522670117" lon="-82.485319">
        <ele>7.289992</ele>
        <time>2024-01-07T09:19:11.000Z</time>
      </trkpt>
      <trkpt lat="27.3522710176" lon="-82.48624">
        <ele>7.220003</ele>
        <time>2024-01-07T09:19:20.000Z</time>
      </trkpt>
      <trkpt lat="27.3522660176" lon="-82.4871379999">
        <ele>7.650008</ele>
        <time>2024-01-07T09:19:29.000Z</time>
      </trkpt>
      <trkpt lat="27.3522760117" lon="-82.4880449999">
        <ele>7.940009</ele>
        <time>2024-01-07T09:19:38.000Z</time>
      </trkpt>
      <trkpt lat="27.352263" lon="-82.488961">
        <ele>8.02</ele>
        <time>2024-01-07T09:19:47.000Z</time>
      </trkpt>
      <trkpt lat="27.352255004" lon="-82.4897123335">
        <ele>7.869996</ele>
        <time>2024-01-07T09:19:54.000Z</time>
      </trkpt>
      <trkpt lat="27.352252004" lon="-82.4904656669">
        <ele>8.109997</ele>
        <time>2024-01-07T09:20:01.000Z</time>
      </trkpt>
      <trkpt lat="27.352235" lon="-82.491229">
        <ele>8.440006</ele>
        <time>2024-01-07T09:20:09.000Z</time>
      </trkpt>
      <trkpt lat="27.3522470067" lon="-82.4921923332">
        <ele>8.060005</ele>
        <time>2024-01-07T09:20:19.000Z</time>
      </trkpt>
      <trkpt lat="27.3522560067" lon="-82.4931686665">
        <ele>8.329997</ele>
        <time>2024-01-07T09:20:29.000Z</time>
      </trkpt>
      <trkpt lat="27.352276" lon="-82.494138">
        <ele>8.320005</ele>
        <time>2024-01-07T09:20:39.000Z</time>
      </trkpt>
      <trkpt lat="27.352276" lon="-82.494829">
        <ele>8.380009</ele>
        <time>2024-01-07T09:20:46.000Z</time>
      </trkpt>
      <trkpt lat="27.3523120019" lon="-82.4955519998">
        <ele>8.499996</ele>
        <time>2024-01-07T09:20:53.000Z</time>
      </trkpt>
      <trkpt lat="27.352349" lon="-82.496299">
        <ele>8.589998</ele>
        <time>2024-01-07T09:21:00.000Z</time>
      </trkpt>
      <trkpt lat="27.3523320009" lon="-82.496813">
        <ele>8.489995</ele>
        <time>2024-01-07T09:21:05.000Z</time>
      </trkpt>
      <trkpt lat="27.352343" lon="-82.497317">
        <ele>8.259997</ele>
        <time>2024-01-07T09:21:10.000Z</time>
      </trkpt>
      <trkpt lat="27.352393" lon="-82.497466">
        <ele>8.109995</ele>
        <time>2024-01-07T09:21:12.000Z</time>
      </trkpt>
      <trkpt lat="27.352376" lon="-82.498032">
        <ele>7.990008</ele>
        <time>2024-01-07T09:21:18.000Z</time>
      </trkpt>
      <trkpt lat="27.352387" lon="-82.498758">
        <ele>8.149996</ele>
        <time>2024-01-07T09:21:25.000Z</time>
      </trkpt>
      <trkpt lat="27.3523800027" lon="-82.4996300001">
        <ele>8.630004</ele>
        <time>2024-01-07T09:21:34.000Z</time>
      </trkpt>
      <trkpt lat="27.352355" lon="-82.500492">
        <ele>8.550004</ele>
        <time>2024-01-07T09:21:43.000Z</time>
      </trkpt>
      <trkpt lat="27.3523566705" lon="-82.5012436667">
        <ele>8.670008</ele>
        <time>2024-01-07T09:21:50.000Z</time>
      </trkpt>
      <trkpt lat="27.3523483372" lon="-82.5019823333">
        <ele>8.729999</ele>
        <time>2024-01-07T09:21:57.000Z</time>
      </trkpt>
      <trkpt lat="27.352343" lon="-82.502706">
        <ele>8.610001</ele>
        <time>2024-01-07T09:22:04.000Z</time>
      </trkpt>
      <trkpt lat="27.352359002" lon="-82.503469">
        <ele>8.700008</ele>
        <time>2024-01-07T09:22:12.000Z</time>
      </trkpt>
      <trkpt lat="27.352351" lon="-82.504207">
        <ele>8.719993</ele>
        <time>2024-01-07T09:22:19.000Z</time>
      </trkpt>
      <trkpt lat="27.352365" lon="-82.504753">
        <ele>8.670001</ele>
        <time>2024-01-07T09:22:24.000Z</time>
      </trkpt>
      <trkpt lat="27.352371" lon="-82.505673">
        <ele>8.989999</ele>
        <time>2024-01-07T09:22:33.000Z</time>
      </trkpt>
      <trkpt lat="27.352643" lon="-82.505689">
        <ele>8.62</ele>
        <time>2024-01-07T09:22:36.000Z</time>
      </trkpt>
      <trkpt lat="27.352643" lon="-82.505681">
        <ele>8.620005</ele>
        <time>2024-01-07T09:22:36.000Z</time>
      </trkpt>
      <trkpt lat="27.3532883333" lon="-82.5056873333">
        <ele>8.649995</ele>
        <time>2024-01-07T09:22:43.000Z</time>
      </trkpt>
      <trkpt lat="27.3539396666" lon="-82.5056996666">
        <ele>8.799992</ele>
        <time>2024-01-07T09:22:50.000Z</time>
      </trkpt>
      <trkpt lat="27.354604" lon="-82.505708">
        <ele>8.870008</ele>
        <time>2024-01-07T09:22:57.000Z</time>
      </trkpt>
      <trkpt lat="27.355298" lon="-82.505662">
        <ele>9.059996</ele>
        <time>2024-01-07T09:23:05.000Z</time>
      </trkpt>
      <trkpt lat="27.356174" lon="-82.5056829997">
        <ele>9.370009</ele>
        <time>2024-01-07T09:23:15.000Z</time>
      </trkpt>
      <trkpt lat="27.357073" lon="-82.5056939996">
        <ele>9.230009</ele>
        <time>2024-01-07T09:23:25.000Z</time>
      </trkpt>
      <trkpt lat="27.357954" lon="-82.5056999996">
        <ele>9.529994</ele>
        <time>2024-01-07T09:23:35.000Z</time>
      </trkpt>
      <trkpt lat="27.358846" lon="-82.5056949997">
        <ele>9.409998</ele>
        <time>2024-01-07T09:23:45.000Z</time>
      </trkpt>
      <trkpt lat="27.359736" lon="-82.505704">
        <ele>9.969998</ele>
        <time>2024-01-07T09:23:55.000Z</time>
      </trkpt>
      <trkpt lat="27.359872" lon="-82.505687">
        <ele>9.940003</ele>
        <time>2024-01-07T09:23:57.000Z</time>
      </trkpt>
      <trkpt lat="27.360753" lon="-82.5056710001">
        <ele>9.569999</ele>
        <time>2024-01-07T09:24:07.000Z</time>
      </trkpt>
      <trkpt lat="27.361628" lon="-82.505641">
        <ele>9.460007</ele>
        <time>2024-01-07T09:24:17.000Z</time>
      </trkpt>
      <trkpt lat="27.36251225" lon="-82.5056505001">
        <ele>9.410005</ele>
        <time>2024-01-07T09:24:27.000Z</time>
      </trkpt>
      <trkpt lat="27.3634115" lon="-82.5056490002">
        <ele>9.580004</ele>
        <time>2024-01-07T09:24:37.000Z</time>
      </trkpt>
      <trkpt lat="27.36428475" lon="-82.5056405003">
        <ele>9.709997</ele>
        <time>2024-01-07T09:24:47.000Z</time>
      </trkpt>
      <trkpt lat="27.365168" lon="-82.5056480003">
        <ele>10.300005</ele>
        <time>2024-01-07T09:24:57.000Z</time>
      </trkpt>
      <trkpt lat="27.36606825" lon="-82.5056285003">
        <ele>10.879994</ele>
        <time>2024-01-07T09:25:07.000Z</time>
      </trkpt>
      <trkpt lat="27.3669545" lon="-82.5056430002">
        <ele>11.330005</ele>
        <time>2024-01-07T09:25:17.000Z</time>
      </trkpt>
      <trkpt lat="27.36782675" lon="-82.5056235001">
        <ele>11.069993</ele>
        <time>2024-01-07T09:25:27.000Z</time>
      </trkpt>
      <trkpt lat="27.368716" lon="-82.505622">
        <ele>10.909993</ele>
        <time>2024-01-07T09:25:37.000Z</time>
      </trkpt>
      <trkpt lat="27.3695578182" lon="-82.505632909">
        <ele>10.920004</ele>
        <time>2024-01-07T09:25:46.000Z</time>
      </trkpt>
      <trkpt lat="27.3703906364" lon="-82.5056388181">
        <ele>10.750009</ele>
        <time>2024-01-07T09:25:55.000Z</time>
      </trkpt>
      <trkpt lat="27.3712184545" lon="-82.5056407271">
        <ele>10.630003</ele>
        <time>2024-01-07T09:26:04.000Z</time>
      </trkpt>
      <trkpt lat="27.3720452727" lon="-82.5056286362">
        <ele>10.460004</ele>
        <time>2024-01-07T09:26:13.000Z</time>
      </trkpt>
      <trkpt lat="27.3728790909" lon="-82.5056355452">
        <ele>10.339997</ele>
        <time>2024-01-07T09:26:22.000Z</time>
      </trkpt>
      <trkpt lat="27.3737029091" lon="-82.5056404543">
        <ele>10.099999</ele>
        <time>2024-01-07T09:26:31.000Z</time>
      </trkpt>
      <trkpt lat="27.3745337273" lon="-82.5056313634">
        <ele>10.139996</ele>
        <time>2024-01-07T09:26:40.000Z</time>
      </trkpt>
      <trkpt lat="27.3753745455" lon="-82.5056282726">
        <ele>9.840006</ele>
        <time>2024-01-07T09:26:49.000Z</time>
      </trkpt>
      <trkpt lat="27.3762033636" lon="-82.5056471817">
        <ele>9.629994</ele>
        <time>2024-01-07T09:26:58.000Z</time>
      </trkpt>
      <trkpt lat="27.3770351818" lon="-82.5056480908">
        <ele>9.570005</ele>
        <time>2024-01-07T09:27:07.000Z</time>
      </trkpt>
      <trkpt lat="27.377876" lon="-82.505639">
        <ele>9.689991</ele>
        <time>2024-01-07T09:27:16.000Z</time>
      </trkpt>
      <trkpt lat="27.378645" lon="-82.5056330002">
        <ele>9.799991</ele>
        <time>2024-01-07T09:27:25.000Z</time>
      </trkpt>
      <trkpt lat="27.379422" lon="-82.5056260003">
        <ele>9.680004</ele>
        <time>2024-01-07T09:27:34.000Z</time>
      </trkpt>
      <trkpt lat="27.380192" lon="-82.5056170003">
        <ele>9.900008</ele>
        <time>2024-01-07T09:27:43.000Z</time>
      </trkpt>
      <trkpt lat="27.380967" lon="-82.5056030002">
        <ele>10.059995</ele>
        <time>2024-01-07T09:27:52.000Z</time>
      </trkpt>
      <trkpt lat="27.381742" lon="-82.505594">
        <ele>10.370001</ele>
        <time>2024-01-07T09:28:01.000Z</time>
      </trkpt>
      <trkpt lat="27.381741" lon="-82.505242">
        <ele>9.829997</ele>
        <time>2024-01-07T09:28:04.000Z</time>
      </trkpt>
      <trkpt lat="27.38175" lon="-82.505248">
        <ele>9.830007</ele>
        <time>2024-01-07T09:28:04.000Z</time>
      </trkpt>
      <trkpt lat="27.381757" lon="-82.504406">
        <ele>9.439993</ele>
        <time>2024-01-07T09:28:12.000Z</time>
      </trkpt>
      <trkpt lat="27.381729" lon="-82.504175">
        <ele>9.440002</ele>
        <time>2024-01-07T09:28:14.000Z</time>
      </trkpt>
      <trkpt lat="27.381601" lon="-82.503886">
        <ele>9.379994</ele>
        <time>2024-01-07T09:28:17.000Z</time>
      </trkpt>
      <trkpt lat="27.381217" lon="-82.50328">
        <ele>9.500002</ele>
        <time>2024-01-07T09:28:24.000Z</time>
      </trkpt>
      <trkpt lat="27.381094" lon="-82.503018">
        <ele>9.599992</ele>
        <time>2024-01-07T09:28:27.000Z</time>
      </trkpt>
      <trkpt lat="27.381039" lon="-82.502781">
        <ele>9.619997</ele>
        <time>2024-01-07T09:28:29.000Z</time>
      </trkpt>
      <trkpt lat="27.3810340294" lon="-82.501839999">
        <ele>9.179998</ele>
        <time>2024-01-07T09:28:38.000Z</time>
      </trkpt>
      <trkpt lat="27.3810140523" lon="-82.5008659982">
        <ele>8.839992</ele>
        <time>2024-01-07T09:28:48.000Z</time>
      </trkpt>
      <trkpt lat="27.3810000687" lon="-82.4999159976">
        <ele>8.859996</ele>
        <time>2024-01-07T09:28:57.000Z</time>
      </trkpt>
      <trkpt lat="27.3809830785" lon="-82.4989489973">
        <ele>9.009993</ele>
        <time>2024-01-07T09:29:07.000Z</time>
      </trkpt>
      <trkpt lat="27.3809670818" lon="-82.4979999972">
        <ele>9.049998</ele>
        <time>2024-01-07T09:29:16.000Z</time>
      </trkpt>
      <trkpt lat="27.3809550785" lon="-82.4970479973">
        <ele>8.639996</ele>
        <time>2024-01-07T09:29:25.000Z</time>
      </trkpt>
      <trkpt lat="27.3809500687" lon="-82.4960929977">
        <ele>8.64</ele>
        <time>2024-01-07T09:29:34.000Z</time>
      </trkpt>
      <trkpt lat="27.3809440523" lon="-82.4951299982">
        <ele>8.54</ele>
        <time>2024-01-07T09:29:44.000Z</time>
      </trkpt>
      <trkpt lat="27.3809210294" lon="-82.494174999">
        <ele>8.499999</ele>
        <time>2024-01-07T09:29:53.000Z</time>
      </trkpt>
      <trkpt lat="27.380904" lon="-82.493214">
        <ele>8.969992</ele>
        <time>2024-01-07T09:30:02.000Z</time>
      </trkpt>
      <trkpt lat="27.3800775714" lon="-82.4932067141">
        <ele>9.019997</ele>
        <time>2024-01-07T09:30:11.000Z</time>
      </trkpt>
      <trkpt lat="27.3792391429" lon="-82.4932004282">
        <ele>9.060007</ele>
        <time>2024-01-07T09:30:20.000Z</time>
      </trkpt>
      <trkpt lat="27.3784087143" lon="-82.4932051425">
        <ele>9.049997</ele>
        <time>2024-01-07T09:30:29.000Z</time>
      </trkpt>
      <trkpt lat="27.3775882857" lon="-82.4931898568">
        <ele>8.929995</ele>
        <time>2024-01-07T09:30:38.000Z</time>
      </trkpt>
      <trkpt lat="27.3767578571" lon="-82.4931815711">
        <ele>8.569998</ele>
        <time>2024-01-07T09:30:47.000Z</time>
      </trkpt>
      <trkpt lat="27.3759124286" lon="-82.4931802855">
        <ele>8.399999</ele>
        <time>2024-01-07T09:30:56.000Z</time>
      </trkpt>
      <trkpt lat="27.375085" lon="-82.493186">
        <ele>8.699998</ele>
        <time>2024-01-07T09:31:05.000Z</time>
      </trkpt>
      <trkpt lat="27.374313" lon="-82.493201">
        <ele>8.900009</ele>
        <time>2024-01-07T09:31:14.000Z</time>
      </trkpt>
      <trkpt lat="27.374149" lon="-82.493132">
        <ele>9.150001</ele>
        <time>2024-01-07T09:31:16.000Z</time>
      </trkpt>
      <trkpt lat="27.374162" lon="-82.492818">
        <ele>9.100006</ele>
        <time>2024-01-07T09:31:19.000Z</time>
      </trkpt>
      <trkpt lat="27.374155" lon="-82.492831">
        <ele>9.099995</ele>
        <time>2024-01-07T09:31:19.000Z</time>
      </trkpt>
      <trkpt lat="27.3741820098" lon="-82.4918685004">
        <ele>9.330006</ele>
        <time>2024-01-07T09:31:29.000Z</time>
      </trkpt>
      <trkpt lat="27.3741840131" lon="-82.4909070005">
        <ele>9.369996</ele>
        <time>2024-01-07T09:31:38.000Z</time>
      </trkpt>
      <trkpt lat="27.3742100098" lon="-82.4899645004">
        <ele>9.470003</ele>
        <time>2024-01-07T09:31:47.000Z</time>
      </trkpt>
      <trkpt lat="27.374214" lon="-82.489001">
        <ele>9.550001</ele>
        <time>2024-01-07T09:31:57.000Z</time>
      </trkpt>
      <trkpt lat="27.3742290076" lon="-82.4881600001">
        <ele>9.560009</ele>
        <time>2024-01-07T09:32:05.000Z</time>
      </trkpt>
      <trkpt lat="27.3742210102" lon="-82.4873080002">
        <ele>9.530009</ele>
        <time>2024-01-07T09:32:13.000Z</time>
      </trkpt>
      <trkpt lat="27.3742290076" lon="-82.4864600002">
        <ele>9.550004</ele>
        <time>2024-01-07T09:32:21.000Z</time>
      </trkpt>
      <trkpt lat="27.374243" lon="-82.485614">
        <ele>9.559995</ele>
        <time>2024-01-07T09:32:29.000Z</time>
      </trkpt>
      <trkpt lat="27.3742260136" lon="-82.4846489996">
        <ele>9.710008</ele>
        <time>2024-01-07T09:32:39.000Z</time>
      </trkpt>
      <trkpt lat="27.3742110204" lon="-82.4836589994">
        <ele>9.469999</ele>
        <time>2024-01-07T09:32:49.000Z</time>
      </trkpt>
      <trkpt lat="27.3742110204" lon="-82.4826909994">
        <ele>9.189991</ele>
        <time>2024-01-07T09:32:59.000Z</time>
      </trkpt>
      <trkpt lat="27.3741860136" lon="-82.4817019996">
        <ele>9.029993</ele>
        <time>2024-01-07T09:33:09.000Z</time>
      </trkpt>
      <trkpt lat="27.374185" lon="-82.480725">
        <ele>8.929997</ele>
        <time>2024-01-07T09:33:19.000Z</time>
      </trkpt>
      <trkpt lat="27.3741520283" lon="-82.4797849983">
        <ele>8.520009</ele>
        <time>2024-01-07T09:33:28.000Z</time>
      </trkpt>
      <trkpt lat="27.3741410503" lon="-82.478842997">
        <ele>8.450004</ele>
        <time>2024-01-07T09:33:37.000Z</time>
      </trkpt>
      <trkpt lat="27.374117066" lon="-82.4779139961">
        <ele>8.469994</ele>
        <time>2024-01-07T09:33:46.000Z</time>
      </trkpt>
      <trkpt lat="27.3740870754" lon="-82.4769809955">
        <ele>8.189991</ele>
        <time>2024-01-07T09:33:55.000Z</time>
      </trkpt>
      <trkpt lat="27.3740700785" lon="-82.4760379954">
        <ele>7.869995</ele>
        <time>2024-01-07T09:34:04.000Z</time>
      </trkpt>
      <trkpt lat="27.3740450754" lon="-82.4750959956">
        <ele>7.789992</ele>
        <time>2024-01-07T09:34:13.000Z</time>
      </trkpt>
      <trkpt lat="27.374029066" lon="-82.4741529961">
        <ele>7.380004</ele>
        <time>2024-01-07T09:34:22.000Z</time>
      </trkpt>
      <trkpt lat="27.3740010503" lon="-82.4732199971">
        <ele>7.430009</ele>
        <time>2024-01-07T09:34:31.000Z</time>
      </trkpt>
      <trkpt lat="27.3739820283" lon="-82.4722829984">
        <ele>7.300001</ele>
        <time>2024-01-07T09:34:40.000Z</time>
      </trkpt>
      <trkpt lat="27.373966" lon="-82.471346">
        <ele>7.799995</ele>
        <time>2024-01-07T09:34:49.000Z</time>
      </trkpt>
      <trkpt lat="27.373993" lon="-82.471247">
        <ele>7.8</ele>
        <time>2024-01-07T09:34:50.000Z</time>
      </trkpt>
      <trkpt lat="27.374882" lon="-82.471237">
        <ele>7.859994</ele>
        <time>2024-01-07T09:35:00.000Z</time>
      </trkpt>
      <trkpt lat="27.374893" lon="-82.471222">
        <ele>7.860006</ele>
        <time>2024-01-07T09:35:00.000Z</time>
      </trkpt>
      <trkpt lat="27.3755695" lon="-82.471234">
        <ele>8.090009</ele>
        <time>2024-01-07T09:35:08.000Z</time>
      </trkpt>
      <trkpt lat="27.376249" lon="-82.471227">
        <ele>8.229994</ele>
        <time>2024-01-07T09:35:16.000Z</time>
      </trkpt>
      <trkpt lat="27.3769175001" lon="-82.471223">
        <ele>8.169994</ele>
        <time>2024-01-07T09:35:23.000Z</time>
      </trkpt>
      <trkpt lat="27.377592" lon="-82.471231">
        <ele>8.179997</ele>
        <time>2024-01-07T09:35:31.000Z</time>
      </trkpt>
      <trkpt lat="27.378323" lon="-82.4712180002">
        <ele>8.259998</ele>
        <time>2024-01-07T09:35:39.000Z</time>
      </trkpt>
      <trkpt lat="27.379059" lon="-82.4712270002">
        <ele>8.199997</ele>
        <time>2024-01-07T09:35:47.000Z</time>
      </trkpt>
      <trkpt lat="27.379777" lon="-82.4712090002">
        <ele>8.170009</ele>
        <time>2024-01-07T09:35:55.000Z</time>
      </trkpt>
      <trkpt lat="27.380506" lon="-82.4712030002">
        <ele>7.849992</ele>
        <time>2024-01-07T09:36:03.000Z</time>
      </trkpt>
      <trkpt lat="27.381238" lon="-82.471192">
        <ele>8.210008</ele>
        <time>2024-01-07T09:36:11.000Z</time>
      </trkpt>
      <trkpt lat="27.3812370016" lon="-82.4705419999">
        <ele>7.979994</ele>
        <time>2024-01-07T09:36:17.000Z</time>
      </trkpt>
      <trkpt lat="27.381218" lon="-82.469873">
        <ele>8.099998</ele>
        <time>2024-01-07T09:36:24.000Z</time>
      </trkpt>
      <trkpt lat="27.381214" lon="-82.469893">
        <ele>8.099991</ele>
        <time>2024-01-07T09:36:24.000Z</time>
      </trkpt>
      <trkpt lat="27.3812050124" lon="-82.4689539996">
        <ele>8.199992</ele>
        <time>2024-01-07T09:36:33.000Z</time>
      </trkpt>
      <trkpt lat="27.3811880186" lon="-82.4680199993">
        <ele>8.17</ele>
        <time>2024-01-07T09:36:42.000Z</time>
      </trkpt>
      <trkpt lat="27.3811820186" lon="-82.4670969993">
        <ele>8.180001</ele>
        <time>2024-01-07T09:36:51.000Z</time>
      </trkpt>
      <trkpt lat="27.3811660124" lon="-82.4661649995">
        <ele>7.87</ele>
        <time>2024-01-07T09:37:00.000Z</time>
      </trkpt>
      <trkpt lat="27.381158" lon="-82.465235">
        <ele>7.619992</ele>
        <time>2024-01-07T09:37:09.000Z</time>
      </trkpt>
      <trkpt lat="27.3811470021" lon="-82.4644719998">
        <ele>7.160006</ele>
        <time>2024-01-07T09:37:17.000Z</time>
      </trkpt>
      <trkpt lat="27.381148" lon="-82.463695">
        <ele>7.599999</ele>
        <time>2024-01-07T09:37:25.000Z</time>
      </trkpt>
      <trkpt lat="27.381092" lon="-82.463605">
        <ele>7.600001</ele>
        <time>2024-01-07T09:37:26.000Z</time>
      </trkpt>
      <trkpt lat="27.3810920099" lon="-82.4627719998">
        <ele>7.120006</ele>
        <time>2024-01-07T09:37:34.000Z</time>
      </trkpt>
      <trkpt lat="27.3810960148" lon="-82.4619369998">
        <ele>7.169994</ele>
        <time>2024-01-07T09:37:42.000Z</time>
      </trkpt>
      <trkpt lat="27.3810730148" lon="-82.4611169998">
        <ele>7.360001</ele>
        <time>2024-01-07T09:37:50.000Z</time>
      </trkpt>
      <trkpt lat="27.3810680099" lon="-82.4602849999">
        <ele>7.149997</ele>
        <time>2024-01-07T09:37:58.000Z</time>
      </trkpt>
      <trkpt lat="27.381065" lon="-82.459459">
        <ele>7.369992</ele>
        <time>2024-01-07T09:38:06.000Z</time>
      </trkpt>
      <trkpt lat="27.381016" lon="-82.458849">
        <ele>7.269992</ele>
        <time>2024-01-07T09:38:12.000Z</time>
      </trkpt>
      <trkpt lat="27.381017" lon="-82.458551">
        <ele>7.17</ele>
        <time>2024-01-07T09:38:15.000Z</time>
      </trkpt>
      <trkpt lat="27.381029" lon="-82.458377">
        <ele>7.109996</ele>
        <time>2024-01-07T09:38:17.000Z</time>
      </trkpt>
      <trkpt lat="27.381089" lon="-82.458014">
        <ele>6.980003</ele>
        <time>2024-01-07T09:38:21.000Z</time>
      </trkpt>
      <trkpt lat="27.381179" lon="-82.457747">
        <ele>6.919996</ele>
        <time>2024-01-07T09:38:24.000Z</time>
      </trkpt>
      <trkpt lat="27.381299" lon="-82.457282">
        <ele>6.779997</ele>
        <time>2024-01-07T09:38:29.000Z</time>
      </trkpt>
      <trkpt lat="27.381306" lon="-82.456976">
        <ele>6.779994</ele>
        <time>2024-01-07T09:38:32.000Z</time>
      </trkpt>
      <trkpt lat="27.381322" lon="-82.456595">
        <ele>6.810009</ele>
        <time>2024-01-07T09:38:36.000Z</time>
      </trkpt>
      <trkpt lat="27.381287" lon="-82.456195">
        <ele>6.869994</ele>
        <time>2024-01-07T09:38:40.000Z</time>
      </trkpt>
      <trkpt lat="27.381241" lon="-82.456008">
        <ele>6.869996</ele>
        <time>2024-01-07T09:38:42.000Z</time>
      </trkpt>
      <trkpt lat="27.381076" lon="-82.455863">
        <ele>6.869995</ele>
        <time>2024-01-07T09:38:44.000Z</time>
      </trkpt>
      <trkpt lat="27.380835" lon="-82.455808">
        <ele>6.839999</ele>
        <time>2024-01-07T09:38:47.000Z</time>
      </trkpt>
      <trkpt lat="27.380837" lon="-82.455803">
        <ele>6.84</ele>
        <time>2024-01-07T09:38:47.000Z</time>
      </trkpt>
      <trkpt lat="27.380256" lon="-82.455721">
        <ele>6.789995</ele>
        <time>2024-01-07T09:38:54.000Z</time>
      </trkpt>
      <trkpt lat="27.379565" lon="-82.455663">
        <ele>6.660001</ele>
        <time>2024-01-07T09:39:02.000Z</time>
      </trkpt>
      <trkpt lat="27.379399" lon="-82.455594">
        <ele>6.660001</ele>
        <time>2024-01-07T09:39:04.000Z</time>
      </trkpt>
      <trkpt lat="27.378985" lon="-82.455378">
        <ele>6.550007</ele>
        <time>2024-01-07T09:39:09.000Z</time>
      </trkpt>
      <trkpt lat="27.378827" lon="-82.455223">
        <ele>6.570004</ele>
        <time>2024-01-07T09:39:11.000Z</time>
      </trkpt>
      <trkpt lat="27.378225" lon="-82.454656">
        <ele>7.009995</ele>
        <time>2024-01-07T09:39:20.000Z</time>
      </trkpt>
      <trkpt lat="27.377935" lon="-82.454269">
        <ele>7.509991</ele>
        <time>2024-01-07T09:39:25.000Z</time>
      </trkpt>
      <trkpt lat="27.377814" lon="-82.454013">
        <ele>7.580002</ele>
        <time>2024-01-07T09:39:28.000Z</time>
      </trkpt>
      <trkpt lat="27.377727" lon="-82.453583">
        <ele>8.520002</ele>
        <time>2024-01-07T09:39:32.000Z</time>
      </trkpt>
      <trkpt lat="27.377714" lon="-82.452778">
        <ele>10.220008</ele>
        <time>2024-01-07T09:39:40.000Z</time>
      </trkpt>
      <trkpt lat="27.377671" lon="-82.452369">
        <ele>8.749992</ele>
        <time>2024-01-07T09:39:44.000Z</time>
      </trkpt>
      <trkpt lat="27.377611" lon="-82.452187">
        <ele>8.299997</ele>
        <time>2024-01-07T09:39:46.000Z</time>
      </trkpt>
      <trkpt lat="27.377518" lon="-82.451921">
        <ele>6.689996</ele>
        <time>2024-01-07T09:39:49.000Z</time>
      </trkpt>
      <trkpt lat="27.377381" lon="-82.451731">
        <ele>6.2</ele>
        <time>2024-01-07T09:39:51.000Z</time>
      </trkpt>
      <trkpt lat="27.3769640008" lon="-82.4512569981">
        <ele>7.659992</ele>
        <time>2024-01-07T09:39:58.000Z</time>
      </trkpt>
      <trkpt lat="27.376531" lon="-82.450765">
        <ele>9.959994</ele>
        <time>2024-01-07T09:40:05.000Z</time>
      </trkpt>
      <trkpt lat="27.376473" lon="-82.450824">
        <ele>10.150007</ele>
        <time>2024-01-07T09:40:06.000Z</time>
      </trkpt>
      <trkpt lat="27.376591" lon="-82.450965">
        <ele>9.859996</ele>
        <time>2024-01-07T09:40:08.000Z</time>
      </trkpt>
      <trkpt lat="27.376192" lon="-82.451424">
        <ele>9.409991</ele>
        <time>2024-01-07T09:40:14.000Z</time>
      </trkpt>
      <trkpt lat="27.37624" lon="-82.451569">
        <ele>9.010003</ele>
        <time>2024-01-07T09:40:16.000Z</time>
      </trkpt>
      <trkpt lat="27.376247" lon="-82.452236">
        <ele>6.959992</ele>
        <time>2024-01-07T09:40:23.000Z</time>
      </trkpt>
      <trkpt lat="27.376176" lon="-82.45233">
        <ele>6.959999</ele>
        <time>2024-01-07T09:40:24.000Z</time>
      </trkpt>
      <trkpt lat="27.376111" lon="-82.452333">
        <ele>6.930004</ele>
        <time>2024-01-07T09:40:25.000Z</time>
      </trkpt>
    </trkseg>
  </trk>
</gpx>

<!--
Performance optimized by W3 Total Cache. Learn more: https://www.boldgrid.com/w3-total-cache/?utm_source=w3tc&utm_medium=footer_comment&utm_campaign=free_plugin

Page Caching using Disk: Enhanced{w3tc_pagecache_reject_reason} 

Served from: www.aquabike.world @ 2026-05-10 23:57:13 by W3 Total Cache
-->